| Place | Name | Time | Raw score | Score |
|---|---|---|---|---|
| 1 | Backgrounds' | 2:39.98 | 1,000 | 319 |
| 2 | Brionac | 2:40.14 | 900 | 287 |
| 3 | Tiedye | 2:41.10 | 859 | 274 |
| 4 | KnightBane | 2:41.27 | 827 | 264 |
| 5 | Predatory_Balloon | 2:43.82 | 800 | 255 |
| 6 | Ferreus | 2:44.19 | 777 | 248 |
| 7 | Kinix | 2:45.08 | 756 | 241 |
| 8 | Freud | 2:45.44 | 736 | 235 |
| 9 | OMANEYE | 2:45.53 | 718 | 229 |
| 10 | Elva | 2:45.68 | 700 | 223 |
| 11 | Waonder | 2:45.70 | 684 | 218 |
| 12 | Jay2a | 2:45.87 | 669 | 213 |
| 13 | fentanyl lover <3 | 2:46.92 | 654 | 209 |
| 14 | Wourder | 2:47.16 | 640 | 204 |
| 15 | Thaumic | 2:48.17 | 626 | 200 |
| 16 | [deleted] | 2:50.41 | 613 | 196 |
| 17 | Melty Land Nightmare | 2:50.44 | 600 | 191 |
| 18 | PinesOfChaos | 2:51.04 | 588 | 188 |
| 19 | Host | 2:51.07 | 576 | 184 |
| 20 | Phazyo Knight | 2:51.34 | 565 | 180 |
| 21 | Bridge | 2:51.39 | 553 | 176 |
| 22 | Arky Rifz | 2:51.40 | 542 | 173 |
| 23 | Gallian Abstract Algebra 9th Ed. | 2:51.46 | 531 | 169 |
| 24 | Comet | 2:51.71 | 521 | 166 |
| 25 | Kaliphear | 2:51.88 | 511 | 163 |
| 26 | Sukairaa Kuma | 2:52.35 | 500 | 159 |
| 26 | Roboraser | 2:52.35 | 500 | 159 |
| 28 | NicholasKB19 | 2:52.42 | 481 | 153 |
| 29 | Sokkero | 2:52.51 | 471 | 150 |
| 30 | Frooj | 2:52.66 | 462 | 147 |
| 31 | MJD | 2:52.86 | 453 | 145 |
| 32 | KingClockwork | 2:52.90 | 444 | 142 |
| 33 | Shady Inktail | 2:53.00 | 435 | 139 |
| 34 | Haunted Pleb | 2:53.13 | 426 | 136 |
| 35 | Getsu Fuma | 2:53.26 | 417 | 133 |
| 36 | Retyqui | 2:53.38 | 409 | 130 |
| 37 | Homulilly (Witch) | 2:53.46 | 400 | 128 |
| 38 | Spennncer | 2:53.53 | 392 | 125 |
| 39 | Tribow | 2:53.79 | 384 | 122 |
| 40 | DPftw | 2:53.81 | 376 | 120 |
| 41 | ゾエナキスト | 2:53.84 | 368 | 117 |
| 42 | Stachybotrys Chartarum | 2:53.87 | 360 | 115 |
| 43 | [RYC] Robin Yrvriff | 2:53.88 | 352 | 112 |
| 44 | CodeMaster | 2:53.94 | 345 | 110 |
| 45 | Felix | 2:54.04 | 337 | 108 |
| 46 | Charlotte | 2:54.18 | 330 | 105 |
| 47 | Razzbazz | 2:54.21 | 322 | 103 |
| 48 | Sidewinder Fang | 2:54.24 | 315 | 100 |
| 49 | NoteHeart TF R U DOIN | 2:54.29 | 308 | 98 |
| 50 | tortulaluna | 2:54.43 | 300 | 96 |
| 51 | G5TNo2486 | 2:54.45 | 293 | 93 |
| 52 | XiQu3sT | 2:54.51 | 286 | 91 |
| 53 | Karasoka | 2:54.58 | 279 | 89 |
| 54 | Brady | 2:54.60 | 272 | 87 |
| 55 | vis | 2:54.61 | 266 | 85 |
| 56 | Cozypunk | 2:54.63 | 259 | 83 |
| 57 | FredFellow | 2:54.65 | 252 | 80 |
| 58 | BrandonK-TN | 2:54.75 | 246 | 78 |
| 59 | CodedCrow | 2:54.86 | 239 | 76 |
| 60 | Hypnoiku | 2:54.91 | 232 | 74 |
| 61 | Ebeta2 | 2:54.93 | 226 | 72 |
| 62 | Whitender | 2:54.97 | 219 | 70 |
| 63 | Shifty | 2:54.98 | 213 | 68 |
| 64 | Sof[fí] | 2:55.01 | 207 | 66 |
| 65 | _TRC | 2:55.05 | 200 | 64 |
| 66 | Phil Trollins | 2:55.11 | 194 | 62 |
| 67 | Beaver | 2:55.14 | 188 | 60 |
| 68 | Azure | 2:55.17 | 182 | 58 |
| 69 | TigerIItank | 2:55.18 | 176 | 56 |
| 70 | SX64 | 2:55.26 | 170 | 54 |
| 71 | RetaliationGuy YT | 2:55.38 | 164 | 52 |
| 72 | EleventyB | 2:55.44 | 158 | 50 |
| 73 | RecursiveAssemblage | 2:55.55 | 152 | 48 |
| 74 | Thermos | 2:55.61 | 146 | 47 |
| 75 | Rhynae | 2:55.67 | 140 | 45 |
| 76 | IllKIllU | 2:55.76 | 134 | 43 |
| 77 | Zany | 2:55.81 | 129 | 41 |
| 78 | Pylinaer | 2:55.90 | 123 | 39 |
| 79 | Achiro | 2:55.91 | 117 | 37 |
| 80 | Saberik | 2:55.95 | 112 | 36 |
| 81 | Zerhlio | 2:56.16 | 106 | 34 |
| 82 | Verendus | 2:56.18 | 100 | 32 |
| 83 | Tadge | 2:56.24 | 95 | 30 |
| 84 | Carlitos | 2:56.27 | 89 | 28 |
| 85 | BurritoDragon99 | 2:56.28 | 84 | 27 |
| 86 | IIRMPII | 2:56.31 | 79 | 25 |
| 87 | starshift | 2:56.34 | 73 | 23 |
| 88 | Jamro | 2:56.41 | 68 | 22 |
| 89 | Jak | 2:56.53 | 62 | 20 |
| 90 | Dravenation | 2:56.58 | 57 | 18 |
| 91 | Malikil | 2:56.64 | 52 | 17 |
| 92 | -Ω- | 2:56.74 | 47 | 15 |
| 93 | Xierne | 2:56.81 | 41 | 13 |
| 94 | Amarookie | 2:56.87 | 36 | 11 |
| 95 | slug ʕ●.●ʔ | 2:56.88 | 31 | 10 |
| 96 | ENOLA | 2:56.90 | 26 | 8 |
| 97 | Griiig | 2:57.20 | 21 | 7 |
| 98 | Vyn | 2:57.29 | 16 | 5 |
| 99 | marius_redandblue | 2:57.30 | 11 | 4 |
| 100 | SSgt. Squeeker [16th IR] | 2:57.43 | 6 | 2 |
| 101 | sacrafish | 2:57.50 | 0 | 0 |
| 102 | Schneidog | 2:57.55 | 0 | 0 |
| 102 | Inny74 | 2:57.55 | 0 | 0 |
| 104 | Oh-Nein | 2:57.60 | 0 | 0 |
| 105 | Swoops Jackson | 2:57.67 | 0 | 0 |
| 106 | Tanzanite_NR | 2:57.72 | 0 | 0 |
| 107 | De_4oore | 2:57.87 | 0 | 0 |
| 108 | Qaaz | 2:57.92 | 0 | 0 |
| 109 | PlatinumAstra | 2:57.93 | 0 | 0 |
| 110 | Ruslan145 | 2:57.97 | 0 | 0 |
| 111 | Azure Zakura | 2:58.08 | 0 | 0 |
| 112 | Sunchipp Games | 2:58.18 | 0 | 0 |
| 113 | BussBizz | 2:58.27 | 0 | 0 |
| 114 | Mired | 2:58.29 | 0 | 0 |
| 115 | FluffWuff <3 | 2:58.30 | 0 | 0 |
| 116 | ~Zed not Z~ | 2:58.53 | 0 | 0 |
| 117 | Vyz | 2:58.61 | 0 | 0 |
| 118 | Dark Star | 2:58.65 | 0 | 0 |
| 118 | ItsSomething | 2:58.65 | 0 | 0 |
| 120 | RenZõÓ | 2:58.70 | 0 | 0 |
| 121 | Dorphan | 2:58.85 | 0 | 0 |
| 122 | Emilie | 2:58.92 | 0 | 0 |
| 123 | GoogleCheese | 2:58.96 | 0 | 0 |
| 124 | The Rattleman | 2:59.04 | 0 | 0 |
| 125 | pztunleaded | 2:59.07 | 0 | 0 |
| 126 | Top10Owls | 2:59.31 | 0 | 0 |
| 127 | Turtelus_Grande | 2:59.35 | 0 | 0 |
| 128 | 2koiraa | 2:59.41 | 0 | 0 |
| 129 | me bus driver | 2:59.60 | 0 | 0 |
| 130 | Kiokka | 2:59.80 | 0 | 0 |
| 131 | PineFreshGuy | 2:59.91 | 0 | 0 |
| 132 | Yuu | 2:59.92 | 0 | 0 |
| 133 | Pidgeon 12 | 2:59.96 | 0 | 0 |
| 134 | Wolfi | 2:59.97 | 0 | 0 |
| 135 | Sixprey | 3:00.22 | 0 | 0 |
| 136 | vert4848 | 3:00.23 | 0 | 0 |
| 137 | SlenderPaul | 3:00.37 | 0 | 0 |
| 138 | Cptpotatoface | 3:00.38 | 0 | 0 |
| 139 | Gray. | 3:00.40 | 0 | 0 |
| 140 | NetroidNederitch | 3:00.42 | 0 | 0 |
| 141 | garden | 3:00.46 | 0 | 0 |
| 142 | EteraKagekara | 3:00.55 | 0 | 0 |
| 143 | Sev | 3:00.66 | 0 | 0 |
| 144 | Satan's cross | 3:00.72 | 0 | 0 |
| 145 | Da Doom Man | 3:00.80 | 0 | 0 |
| 146 | Defect | 3:01.01 | 0 | 0 |
| 146 | agus | 3:01.01 | 0 | 0 |
| 148 | nrpsSword0 | 3:01.03 | 0 | 0 |
| 149 | i0nTempest | 3:01.05 | 0 | 0 |
| 150 | AHDog | 3:01.06 | 0 | 0 |
| 151 | NotAtAllWise0 | 3:01.14 | 0 | 0 |
| 152 | riptide. | 3:01.17 | 0 | 0 |
| 152 | Pinn27 | 3:01.17 | 0 | 0 |
| 154 | Fuffmydog | 3:01.24 | 0 | 0 |
| 155 | Maxter Max | 3:01.31 | 0 | 0 |
| 156 | LU18 | 3:01.39 | 0 | 0 |
| 157 | King | 3:01.40 | 0 | 0 |
| 158 | sounder129 | 3:01.45 | 0 | 0 |
| 159 | Jessvette! | 3:01.46 | 0 | 0 |
| 160 | kaddto | 3:01.51 | 0 | 0 |
| 161 | shsnuzzle | 3:01.65 | 0 | 0 |
| 162 | FifteenBread | 3:01.87 | 0 | 0 |
| 163 | Eyen | 3:01.88 | 0 | 0 |
| 164 | limb0 | 3:01.90 | 0 | 0 |
| 165 | Jrc126 | 3:01.95 | 0 | 0 |
| 166 | N33dwagon | 3:02.03 | 0 | 0 |
| 167 | Pharenir | 3:02.04 | 0 | 0 |
| 168 | BlueLighted | 3:02.05 | 0 | 0 |
| 169 | Heiko | 3:02.08 | 0 | 0 |
| 170 | NyanYanSnack | 3:02.10 | 0 | 0 |
| 171 | DaBlazeMann | 3:02.28 | 0 | 0 |
| 172 | Qioury | 3:02.32 | 0 | 0 |
| 173 | Jorban | 3:02.35 | 0 | 0 |
| 174 | The_Paradoxon99 | 3:02.43 | 0 | 0 |
| 175 | Ogamiss | 3:02.48 | 0 | 0 |
| 175 | No | 3:02.48 | 0 | 0 |
| 177 | lEm=uS | 3:02.50 | 0 | 0 |
| 178 | WiteNite | 3:02.52 | 0 | 0 |
| 178 | Flirty_Jasper71 | 3:02.52 | 0 | 0 |
| 180 | Luxora | 3:02.63 | 0 | 0 |
| 181 | tylercreamer | 3:02.67 | 0 | 0 |
| 182 | Caradog | 3:02.68 | 0 | 0 |
| 183 | PowerMeep | 3:02.77 | 0 | 0 |
| 184 | Azem_of_Earth | 3:02.83 | 0 | 0 |
| 184 | RadLad25X | 3:02.83 | 0 | 0 |
| 186 | Natr | 3:02.84 | 0 | 0 |
| 187 | Kuradis | 3:02.91 | 0 | 0 |
| 188 | Quirked-up White Boy | 3:02.96 | 0 | 0 |
| 189 | Zusendo | 3:03.10 | 0 | 0 |
| 190 | LobaDK | 3:03.11 | 0 | 0 |
| 191 | annoyinggamer99 | 3:03.16 | 0 | 0 |
| 192 | Mr. Chubbz | 3:03.32 | 0 | 0 |
| 193 | LengthyBread409 | 3:03.52 | 0 | 0 |
| 194 | Hazard_Officer | 3:03.59 | 0 | 0 |
| 195 | CurtDog420 | 3:03.60 | 0 | 0 |
| 196 | Volzio | 3:03.70 | 0 | 0 |
| 196 | Dubzz | 3:03.70 | 0 | 0 |
| 198 | Agent-Cryspy | 3:03.74 | 0 | 0 |
| 199 | Jacket | 3:03.95 | 0 | 0 |
| 200 | Kokosnoot Brood | 3:03.96 | 0 | 0 |
| 201 | DJsin | 3:03.99 | 0 | 0 |
| 202 | TheEvilMidnightBomber | 3:04.00 | 0 | 0 |
| 203 | Keigun | 3:04.01 | 0 | 0 |
| 204 | DJsquare3 (Nebula) | 3:04.07 | 0 | 0 |
| 205 | Chas | 3:04.12 | 0 | 0 |
| 206 | zim | 3:04.19 | 0 | 0 |
| 207 | MacroHardt | 3:04.25 | 0 | 0 |
| 208 | Cliff | 3:04.26 | 0 | 0 |
| 209 | Leavanny | 3:04.39 | 0 | 0 |
| 209 | BigToni | 3:04.39 | 0 | 0 |
| 211 | Sayukki | 3:04.40 | 0 | 0 |
| 212 | A very silly man indeed | 3:04.53 | 0 | 0 |
| 213 | Spooky | 3:04.55 | 0 | 0 |
| 214 | SpikeBeatbox | 3:04.63 | 0 | 0 |
| 215 | toniqe53 | 3:04.64 | 0 | 0 |
| 216 | salsa™ | 3:04.65 | 0 | 0 |
| 216 | Restarian | 3:04.65 | 0 | 0 |
| 218 | elk | 3:04.68 | 0 | 0 |
| 218 | Yuan36 | 3:04.68 | 0 | 0 |
| 220 | Yushu | 3:04.72 | 0 | 0 |
| 220 | Randomplayer187 | 3:04.72 | 0 | 0 |
| 222 | Гвоздь | 3:04.75 | 0 | 0 |
| 223 | [deleted] | 3:04.80 | 0 | 0 |
| 224 | Drako | 3:04.89 | 0 | 0 |
| 225 | Ennik | 3:04.90 | 0 | 0 |
| 225 | Zenoguard | 3:04.90 | 0 | 0 |
| 227 | Merisiin | 3:04.91 | 0 | 0 |
| 228 | Lord Adorable | 3:04.92 | 0 | 0 |
| 229 | Comfy Eldrazi | 3:04.93 | 0 | 0 |
| 230 | Laugh Track | 3:04.95 | 0 | 0 |
| 231 | Vald | 3:04.96 | 0 | 0 |
| 232 | MittPlays | 3:05.04 | 0 | 0 |
| 233 | 문경왕개미 | 3:05.05 | 0 | 0 |
| 233 | Wayne | 3:05.05 | 0 | 0 |
| 233 | Nova | 3:05.05 | 0 | 0 |
| 236 | BEERUS | 3:05.08 | 0 | 0 |
| 237 | kriz_chan | 3:05.11 | 0 | 0 |
| 237 | Laudy | 3:05.11 | 0 | 0 |
| 239 | Pardalote | 3:05.12 | 0 | 0 |
| 240 | Tac12 | 3:05.17 | 0 | 0 |
| 241 | Horpp | 3:05.18 | 0 | 0 |
| 242 | WingDiggin | 3:05.19 | 0 | 0 |
| 243 | Phoenix0891 | 3:05.20 | 0 | 0 |
| 244 | rbrules | 3:05.22 | 0 | 0 |
| 244 | Deathhim | 3:05.22 | 0 | 0 |
| 244 | Le Freak | 3:05.22 | 0 | 0 |
| 247 | DarthNvadeHer | 3:05.25 | 0 | 0 |
| 248 | D2C | CloudNinja | 3:05.28 | 0 | 0 |
| 249 | iamme99 | 3:05.29 | 0 | 0 |
| 249 | BigBruhther_ | 3:05.29 | 0 | 0 |
| 251 | Gloþ | 3:05.37 | 0 | 0 |
| 252 | Nermonia | 3:05.42 | 0 | 0 |
| 253 | Simon911 | 3:05.43 | 0 | 0 |
| 254 | Ryth | 3:05.47 | 0 | 0 |
| 255 | Rusty | 3:05.50 | 0 | 0 |
| 255 | Supernovis | 3:05.50 | 0 | 0 |
| 257 | Tartarus | 3:05.58 | 0 | 0 |
| 258 | Él Pigeon | 3:05.59 | 0 | 0 |
| 259 | Gorou | 3:05.66 | 0 | 0 |
| 260 | Parts | 3:05.67 | 0 | 0 |
| 261 | Unbinilium120 | 3:05.69 | 0 | 0 |
| 262 | Squidamouche | 3:05.77 | 0 | 0 |
| 263 | Figs | 3:05.79 | 0 | 0 |
| 264 | MOOSE | 3:05.80 | 0 | 0 |
| 265 | Ch1ll4x333 | 3:05.82 | 0 | 0 |
| 266 | ICYVEVO | 3:05.83 | 0 | 0 |
| 267 | Kool Skull | 3:05.85 | 0 | 0 |
| 268 | Apocalyptic Bunny | 3:05.90 | 0 | 0 |
| 269 | st0lo | 3:05.92 | 0 | 0 |
| 270 | Kire | 3:05.95 | 0 | 0 |
| 271 | pigpenguin | 3:05.98 | 0 | 0 |
| 272 | Californ1a | 3:06.00 | 0 | 0 |
| 273 | MeatyScreams | 3:06.05 | 0 | 0 |
| 274 | Crado | 3:06.06 | 0 | 0 |
| 275 | TuxFever | 3:06.10 | 0 | 0 |
| 276 | Dormanius | 3:06.28 | 0 | 0 |
| 277 | Joel | 3:06.32 | 0 | 0 |
| 278 | V!nyl | 3:06.39 | 0 | 0 |
| 279 | ironcaptain467 | 3:06.41 | 0 | 0 |
| 280 | Devin | 3:06.50 | 0 | 0 |
| 281 | Bergtroll | 3:06.51 | 0 | 0 |
| 281 | Zord | 3:06.51 | 0 | 0 |
| 283 | Kan Kitsune | 3:06.56 | 0 | 0 |
| 284 | Omega Synth | 3:06.61 | 0 | 0 |
| 285 | cptnbean | 3:06.64 | 0 | 0 |
| 286 | JessInTheShell | 3:06.66 | 0 | 0 |
| 287 | blur | 3:06.74 | 0 | 0 |
| 288 | SneakyBombsuit | 3:06.77 | 0 | 0 |
| 289 | Lady Yuna Yosha | 3:06.79 | 0 | 0 |
| 290 | CrazyMaurice120 | 3:06.85 | 0 | 0 |
| 291 | rey20099 | 3:06.88 | 0 | 0 |
| 292 | Suffer | 3:06.97 | 0 | 0 |
| 292 | Astral Rose | 3:06.97 | 0 | 0 |
| 294 | Strangething | 3:06.99 | 0 | 0 |
| 295 | Reaster | 3:07.05 | 0 | 0 |
| 296 | Lysh | 3:07.06 | 0 | 0 |
| 297 | avenx | 3:07.10 | 0 | 0 |
| 297 | NastyPopcorn | 3:07.10 | 0 | 0 |
| 299 | dr flopper | 3:07.12 | 0 | 0 |
| 300 | Malum Umbra | 3:07.21 | 0 | 0 |
| 300 | FirePirate | 3:07.21 | 0 | 0 |
| 302 | _Blank_ | 3:07.34 | 0 | 0 |
| 303 | Titansmasher | 3:07.35 | 0 | 0 |
| 304 | Soulhunter706 | 3:07.37 | 0 | 0 |
| 305 | Srigby | 3:07.47 | 0 | 0 |
| 306 | BMX Master Chief | 3:07.50 | 0 | 0 |
| 307 | Rudik | 3:07.54 | 0 | 0 |
| 308 | Nookie | 3:07.55 | 0 | 0 |
| 309 | Tuman125 | 3:07.56 | 0 | 0 |
| 310 | relaxinggrizzly | 3:07.57 | 0 | 0 |
| 311 | RaiderZulu | 3:07.59 | 0 | 0 |
| 312 | Puttanella smarrita | 3:07.74 | 0 | 0 |
| 312 | Underliinez | 3:07.74 | 0 | 0 |
| 312 | Ralsei | 3:07.74 | 0 | 0 |
| 315 | lungfish | 3:07.80 | 0 | 0 |
| 315 | Sifilicit | 3:07.80 | 0 | 0 |
| 317 | NeonPyromancy | 3:07.81 | 0 | 0 |
| 318 | LiviNyan | 3:07.84 | 0 | 0 |
| 319 | MetalKingBoo | 3:07.86 | 0 | 0 |
| 320 | Mizzepi | 3:07.95 | 0 | 0 |
| 321 | Siddey10 | 3:08.04 | 0 | 0 |
| 321 | Depdawg | 3:08.04 | 0 | 0 |
| 323 | [MM] Vannevariable | 3:08.05 | 0 | 0 |
| 324 | |lDgAl|badBlackShark | 3:08.10 | 0 | 0 |
| 325 | Sigmund Scholomon Freud | 3:08.11 | 0 | 0 |
| 326 | Seinah | 3:08.13 | 0 | 0 |
| 327 | Bulbasaur | 3:08.14 | 0 | 0 |
| 328 | JayBoneJay | 3:08.15 | 0 | 0 |
| 329 | Drez Gremlin | 3:08.19 | 0 | 0 |
| 330 | Betty the Bat | 3:08.21 | 0 | 0 |
| 331 | Curious Fish | 3:08.28 | 0 | 0 |
| 332 | Frozen Dino | 3:08.29 | 0 | 0 |
| 333 | Toppincattin | 3:08.34 | 0 | 0 |
| 333 | kiryu gaming | 3:08.34 | 0 | 0 |
| 335 | Alex Chosen | 3:08.42 | 0 | 0 |
| 336 | StargazerBird | 3:08.43 | 0 | 0 |
| 337 | Chubo Quay | 3:08.47 | 0 | 0 |
| 337 | DecoyofChivalry | 3:08.47 | 0 | 0 |
| 339 | Dingo | 3:08.58 | 0 | 0 |
| 340 | Hypezz | 3:08.63 | 0 | 0 |
| 341 | iamzim | 3:08.69 | 0 | 0 |
| 342 | Spacescout | 3:08.74 | 0 | 0 |
| 343 | LT_Schmiddy | 3:08.80 | 0 | 0 |
| 344 | FauxPsalm | 3:08.81 | 0 | 0 |
| 344 | Peka | 3:08.81 | 0 | 0 |
| 346 | quoy | 3:08.83 | 0 | 0 |
| 346 | jason | 3:08.83 | 0 | 0 |
| 348 | Winter Ace | 3:08.96 | 0 | 0 |
| 349 | Galactica Racer | 3:08.98 | 0 | 0 |
| 350 | PenguinMafia | 3:08.99 | 0 | 0 |
| 351 | [BIT]SnepSpecialist | 3:09.03 | 0 | 0 |
| 351 | ʎɯɯɐS | 3:09.03 | 0 | 0 |
| 353 | NK - Néko | 3:09.07 | 0 | 0 |
| 354 | Irradiated Irridium | 3:09.09 | 0 | 0 |
| 354 | WASPER | 3:09.09 | 0 | 0 |
| 356 | Linux | 3:09.17 | 0 | 0 |
| 356 | Plasmawario | 3:09.17 | 0 | 0 |
| 358 | VonSee | 3:09.23 | 0 | 0 |
| 359 | Dante 🐱 | 3:09.26 | 0 | 0 |
| 360 | GamingSoul | 3:09.29 | 0 | 0 |
| 361 | YFM | 3:09.30 | 0 | 0 |
| 361 | Smackdealer | 3:09.30 | 0 | 0 |
| 363 | ペレリン | 3:09.34 | 0 | 0 |
| 364 | Pistiaan | 3:09.42 | 0 | 0 |
| 365 | NoraBytes ΘΔ | 3:09.47 | 0 | 0 |
| 366 | andrew.johnburgess88 | 3:09.48 | 0 | 0 |
| 367 | macouille74 | 3:09.53 | 0 | 0 |
| 368 | Armando | 3:09.54 | 0 | 0 |
| 369 | Zalderax | 3:09.62 | 0 | 0 |
| 370 | Socrates | 3:09.63 | 0 | 0 |
| 371 | Massive_l0ser | 3:09.72 | 0 | 0 |
| 372 | ♪♥ GreenYoshi116 ♥♪ | 3:09.74 | 0 | 0 |
| 373 | Isen | 3:09.83 | 0 | 0 |
| 373 | Roman | 3:09.83 | 0 | 0 |
| 375 | Stuffy360 | 3:09.88 | 0 | 0 |
| 376 | Beach Jeans | 3:09.91 | 0 | 0 |
| 377 | veggieboy05 | 3:09.96 | 0 | 0 |
| 378 | Parallel Platypus | 3:10.17 | 0 | 0 |
| 379 | chris0matic | 3:10.20 | 0 | 0 |
| 379 | Shadow_Legion | 3:10.20 | 0 | 0 |
| 381 | Meliodas98420 | 3:10.27 | 0 | 0 |
| 382 | Raxus | 3:10.29 | 0 | 0 |
| 383 | absolutelynothing | 3:10.31 | 0 | 0 |
| 384 | Ròókie Red | 3:10.32 | 0 | 0 |
| 385 | Gray | 3:10.38 | 0 | 0 |
| 386 | R3D | 3:10.49 | 0 | 0 |
| 386 | Bat Country | 3:10.49 | 0 | 0 |
| 388 | Winter's Crescendo | 3:10.51 | 0 | 0 |
| 389 | Vers | 3:10.52 | 0 | 0 |
| 390 | vorador2 | 3:10.57 | 0 | 0 |
| 390 | Xtreme | 3:10.57 | 0 | 0 |
| 392 | DarkShadow | 3:10.68 | 0 | 0 |
| 392 | IIMr.WhiteII | 3:10.68 | 0 | 0 |
| 394 | ToyoColla | 3:10.69 | 0 | 0 |
| 395 | Cairan347 | 3:10.70 | 0 | 0 |
| 396 | woody | 3:10.81 | 0 | 0 |
| 396 | Vert | 3:10.81 | 0 | 0 |
| 398 | Anrig | 3:10.83 | 0 | 0 |
| 399 | Krispy | 3:10.89 | 0 | 0 |
| 400 | you plague ridden rat | 3:10.94 | 0 | 0 |
| 401 | Enobo | 3:10.95 | 0 | 0 |
| 402 | Andi Theke | 3:11.02 | 0 | 0 |
| 403 | LooYoung | 3:11.05 | 0 | 0 |
| 404 | Sugoi-desu (⊙‿⊙✿) | 3:11.08 | 0 | 0 |
| 405 | LoticaJr | 3:11.10 | 0 | 0 |
| 406 | Tav | 3:11.17 | 0 | 0 |
| 407 | Ossogo | 3:11.27 | 0 | 0 |
| 408 | Raiden | 3:11.32 | 0 | 0 |
| 409 | Makuta | 3:11.34 | 0 | 0 |
| 410 | Goob | 3:11.45 | 0 | 0 |
| 411 | Cheesy Bean and Rice Burrito | 3:11.48 | 0 | 0 |
| 411 | NierMaia | 3:11.48 | 0 | 0 |
| 413 | RenAi | 3:11.50 | 0 | 0 |
| 414 | T-mac | 3:11.52 | 0 | 0 |
| 415 | Extem The Hedgehog | 3:11.57 | 0 | 0 |
| 416 | Vick | 3:11.58 | 0 | 0 |
| 417 | Terr4 | 3:11.60 | 0 | 0 |
| 418 | Oxyo | 3:11.68 | 0 | 0 |
| 419 | JaServus | 3:11.69 | 0 | 0 |
| 420 | Raven | 3:11.72 | 0 | 0 |
| 421 | Nate, some fluffy Lu | 3:11.74 | 0 | 0 |
| 422 | nepvee | 3:11.75 | 0 | 0 |
| 423 | Sacred | 3:11.78 | 0 | 0 |
| 424 | Izi | 3:11.79 | 0 | 0 |
| 425 | Cyberpunk Ice Noodle | 3:11.82 | 0 | 0 |
| 426 | KevKirby | 3:11.87 | 0 | 0 |
| 427 | Dubblr | 3:11.89 | 0 | 0 |
| 428 | LeZalain | 3:11.90 | 0 | 0 |
| 428 | LittleKittyArtemis | 3:11.90 | 0 | 0 |
| 430 | British Badger | 3:11.98 | 0 | 0 |
| 431 | Pear | 3:12.01 | 0 | 0 |
| 432 | ♢▶ TokeMon ◀♢ | 3:12.02 | 0 | 0 |
| 432 | CoolDogFacts | 3:12.02 | 0 | 0 |
| 434 | toad | 3:12.15 | 0 | 0 |
| 434 | Kodtiz3D | 3:12.15 | 0 | 0 |
| 436 | rz zombie | 3:12.22 | 0 | 0 |
| 437 | Davonavik | 3:12.27 | 0 | 0 |
| 438 | Retr0_Class1c | 3:12.28 | 0 | 0 |
| 439 | Xemsi | 3:12.29 | 0 | 0 |
| 440 | smug loli | 3:12.34 | 0 | 0 |
| 441 | TripodRanger | 3:12.35 | 0 | 0 |
| 442 | kopfundsteinistgleichpflaster | 3:12.38 | 0 | 0 |
| 443 | Latapi | 3:12.45 | 0 | 0 |
| 444 | The_Sherf | 3:12.49 | 0 | 0 |
| 445 | Kobo | 3:12.53 | 0 | 0 |
| 445 | TheOneandOnlyBenji | 3:12.53 | 0 | 0 |
| 447 | Nick Elements | 3:12.58 | 0 | 0 |
| 448 | J_F_Wolf | 3:12.59 | 0 | 0 |
| 449 | TheatriChris | 3:12.63 | 0 | 0 |
| 450 | 🦌SomeDumbDoe🦌 | 3:12.65 | 0 | 0 |
| 451 | Bazoo | 3:12.67 | 0 | 0 |
| 452 | ♦Badger♦ | 3:12.68 | 0 | 0 |
| 453 | gusforester | 3:12.73 | 0 | 0 |
| 454 | Gage | 3:12.74 | 0 | 0 |
| 455 | Jason Bennington | 3:12.76 | 0 | 0 |
| 456 | Gurgy | 3:12.85 | 0 | 0 |
| 457 | Astrolight | 3:12.90 | 0 | 0 |
| 458 | Agonyst | 3:12.91 | 0 | 0 |
| 459 | RenTide4 | 3:12.95 | 0 | 0 |
| 460 | FreezingFrost | 3:12.96 | 0 | 0 |
| 461 | MyurrDurr | 3:12.97 | 0 | 0 |
| 462 | Captain Uganda | 3:13.02 | 0 | 0 |
| 463 | GenericTrash™ | 3:13.06 | 0 | 0 |
| 464 | Uholyn | 3:13.08 | 0 | 0 |
| 465 | Cole | 3:13.17 | 0 | 0 |
| 465 | Sliding_hunter426 | 3:13.17 | 0 | 0 |
| 467 | DSK01 | 3:13.30 | 0 | 0 |
| 468 | Bony Bastard | 3:13.32 | 0 | 0 |
| 468 | King | 3:13.32 | 0 | 0 |
| 470 | Red | 3:13.35 | 0 | 0 |
| 470 | Gamekat☆彡 | 3:13.35 | 0 | 0 |
| 472 | Erebus | 3:13.37 | 0 | 0 |
| 473 | Sofy_26 | 3:13.40 | 0 | 0 |
| 474 | Quadratic Formula | 3:13.47 | 0 | 0 |
| 475 | Cherry | 3:13.51 | 0 | 0 |
| 476 | BluSharpie | 3:13.58 | 0 | 0 |
| 477 | Minecraft-pro | 3:13.59 | 0 | 0 |
| 478 | Dirtiestbag | 3:13.60 | 0 | 0 |
| 479 | Cinnamon ᓚᘏᗢ | 3:13.73 | 0 | 0 |
| 480 | 夜半 | Taz | 3:13.79 | 0 | 0 |
| 481 | Hell+ | 3:13.88 | 0 | 0 |
| 482 | SpaceCop | 3:13.96 | 0 | 0 |
| 483 | Dimitri | 3:13.97 | 0 | 0 |
| 483 | PartTimeCanadian | 3:13.97 | 0 | 0 |
| 485 | ketrub | 3:14.01 | 0 | 0 |
| 486 | Superbenedetto | 3:14.05 | 0 | 0 |
| 487 | Osbob | 3:14.11 | 0 | 0 |
| 488 | Ariiiii | 3:14.16 | 0 | 0 |
| 489 | KnockerDolt | 3:14.17 | 0 | 0 |
| 490 | Varadon | 3:14.18 | 0 | 0 |
| 491 | Wolf | 3:14.19 | 0 | 0 |
| 492 | OilLad | 3:14.24 | 0 | 0 |
| 492 | Talbolago | 3:14.24 | 0 | 0 |
| 494 | Wipeout! | 3:14.30 | 0 | 0 |
| 495 | loud | 3:14.31 | 0 | 0 |
| 496 | Pixelephant | 3:14.32 | 0 | 0 |
| 497 | HimmDawg | 3:14.33 | 0 | 0 |
| 498 | Kamikaze901 | 3:14.35 | 0 | 0 |
| 499 | blue42u | 3:14.40 | 0 | 0 |
| 500 | Decker | 3:14.49 | 0 | 0 |
| 501 | TheBritishAreComing | 3:14.51 | 0 | 0 |
| 502 | Bundao da 2B Explode de Gostoso | 3:14.61 | 0 | 0 |
| 503 | Fastest Racist Pinacate | 3:14.62 | 0 | 0 |
| 504 | flo | 3:14.64 | 0 | 0 |
| 504 | Pyrothecat | 3:14.64 | 0 | 0 |
| 506 | Swayo | 3:14.78 | 0 | 0 |
| 507 | Gomorrha | 3:14.79 | 0 | 0 |
| 508 | Todd Bonzalez | 3:14.85 | 0 | 0 |
| 509 | WolfBoi | 3:14.99 | 0 | 0 |
| 510 | Slater | 3:15.00 | 0 | 0 |
| 511 | Foxivael | 3:15.01 | 0 | 0 |
| 511 | LaniHam | 3:15.01 | 0 | 0 |
| 513 | Caiqs | 3:15.02 | 0 | 0 |
| 514 | High Voltage | 3:15.05 | 0 | 0 |
| 515 | kildert5 | 3:15.07 | 0 | 0 |
| 516 | Saint Pierre | 3:15.08 | 0 | 0 |
| 516 | DINGUS PANDA | 3:15.08 | 0 | 0 |
| 518 | BennLivid | 3:15.15 | 0 | 0 |
| 519 | Nydus born | 3:15.16 | 0 | 0 |
| 520 | Schapenmaag | 3:15.17 | 0 | 0 |
| 520 | TantasStarke | 3:15.17 | 0 | 0 |
| 522 | Zab | 3:15.19 | 0 | 0 |
| 522 | Slobbercat | 3:15.19 | 0 | 0 |
| 524 | Araku | 3:15.23 | 0 | 0 |
| 525 | Awesomesauce | 3:15.28 | 0 | 0 |
| 526 | HiredIceSpecter | 3:15.32 | 0 | 0 |
| 527 | TheBoredguyyy | 3:15.34 | 0 | 0 |
| 528 | Metal Max Dog | 3:15.41 | 0 | 0 |
| 529 | Imperial L Ray | 3:15.43 | 0 | 0 |
| 530 | dnsS | 3:15.44 | 0 | 0 |
| 531 | Medium Smoke | 3:15.47 | 0 | 0 |
| 532 | Hopeless Himejoshi | 3:15.48 | 0 | 0 |
| 533 | Corecii | 3:15.49 | 0 | 0 |
| 534 | Nocturnal | 3:15.51 | 0 | 0 |
| 534 | salmonfoundmiku | 3:15.51 | 0 | 0 |
| 536 | Skye! | 3:15.55 | 0 | 0 |
| 536 | Rabbids Enjoyer | 3:15.55 | 0 | 0 |
| 536 | Nakoju | 3:15.55 | 0 | 0 |
| 539 | <edgyname> | 3:15.56 | 0 | 0 |
| 540 | Hovex the Spider | 3:15.66 | 0 | 0 |
| 541 | ♥ Ferrum Draconis ♥ | 3:15.68 | 0 | 0 |
| 542 | warmainiac | 3:15.72 | 0 | 0 |
| 543 | Some Rogue AI | 3:15.73 | 0 | 0 |
| 544 | STRATA_V1 | 3:15.76 | 0 | 0 |
| 545 | Funkle Sam | 3:15.80 | 0 | 0 |
| 546 | Rombommind | 3:15.84 | 0 | 0 |
| 547 | Koffiekopje | 3:15.92 | 0 | 0 |
| 547 | Lord_Ransom | 3:15.92 | 0 | 0 |
| 549 | Samn | 3:15.94 | 0 | 0 |
| 550 | SpyrouR | 3:16.13 | 0 | 0 |
| 551 | Cruisa | 3:16.14 | 0 | 0 |
| 552 | Aespher | 3:16.15 | 0 | 0 |
| 553 | xXmrburnsXx | 3:16.16 | 0 | 0 |
| 554 | Nico | 3:16.23 | 0 | 0 |
| 555 | Manatee | 3:16.28 | 0 | 0 |
| 556 | Viking_king | 3:16.29 | 0 | 0 |
| 556 | Gollickatica | 3:16.29 | 0 | 0 |
| 556 | Muggestutz | 3:16.29 | 0 | 0 |
| 559 | Jos | 3:16.43 | 0 | 0 |
| 560 | MrMister | 3:16.52 | 0 | 0 |
| 560 | Saph | 3:16.52 | 0 | 0 |
| 562 | Rei | 3:16.58 | 0 | 0 |
| 563 | XCVIBUR | 3:16.59 | 0 | 0 |
| 564 | SWolf | 3:16.68 | 0 | 0 |
| 565 | Green Samurai | 3:16.81 | 0 | 0 |
| 566 | T h e R a t | 3:16.87 | 0 | 0 |
| 566 | TDOf Ducks Plays | 3:16.87 | 0 | 0 |
| 568 | SparraNova | 3:16.88 | 0 | 0 |
| 569 | F1220 | 3:17.01 | 0 | 0 |
| 570 | Sea Raider | 3:17.06 | 0 | 0 |
| 571 | gageparris1 | 3:17.07 | 0 | 0 |
| 572 | TechWolfie | 3:17.08 | 0 | 0 |
| 573 | Wedel25 | 3:17.14 | 0 | 0 |
| 574 | Nerf | 3:17.17 | 0 | 0 |
| 574 | Star Scuffle | 3:17.17 | 0 | 0 |
| 576 | UCRIS32 | 3:17.20 | 0 | 0 |
| 577 | JROD | 3:17.21 | 0 | 0 |
| 578 | Tybalt the First | 3:17.29 | 0 | 0 |
| 579 | Shuriken Chicken | 3:17.30 | 0 | 0 |
| 580 | yo | 3:17.32 | 0 | 0 |
| 581 | TheRealDreamy | 3:17.35 | 0 | 0 |
| 582 | RedΛngel | 3:17.41 | 0 | 0 |
| 582 | Pawjwp | 3:17.41 | 0 | 0 |
| 584 | TIMMEH | 3:17.46 | 0 | 0 |
| 585 | Greenfire DX | 3:17.49 | 0 | 0 |
| 586 | lunaxiu | 3:17.50 | 0 | 0 |
| 587 | bmrc97 | 3:17.52 | 0 | 0 |
| 588 | Delta711 | 3:17.53 | 0 | 0 |
| 589 | Splatsune Miku | 3:17.54 | 0 | 0 |
| 590 | Acias | 3:17.59 | 0 | 0 |
| 591 | MeWantCookiee | 3:17.63 | 0 | 0 |
| 592 | Ben Reyhom | 3:17.67 | 0 | 0 |
| 592 | BONEHEAD | 3:17.67 | 0 | 0 |
| 594 | IIEraserReignII | 3:17.70 | 0 | 0 |
| 595 | Eddy | 3:17.83 | 0 | 0 |
| 596 | JB | 3:17.85 | 0 | 0 |
| 596 | Holo | 3:17.85 | 0 | 0 |
| 598 | Gipan | 3:17.91 | 0 | 0 |
| 599 | Olympian_mystery | 3:17.92 | 0 | 0 |
| 600 | Edragon13 | 3:17.98 | 0 | 0 |
| 601 | jYunkmi | 3:17.99 | 0 | 0 |
| 602 | Thomas | 3:18.00 | 0 | 0 |
| 603 | [iNk] Primus | 3:18.10 | 0 | 0 |
| 604 | Crysest | 3:18.16 | 0 | 0 |
| 605 | j_crakers | 3:18.18 | 0 | 0 |
| 606 | Spark | 3:18.19 | 0 | 0 |
| 607 | DblCircles | 3:18.23 | 0 | 0 |
| 608 | Hayden | 3:18.26 | 0 | 0 |
| 609 | UlverHausu | 3:18.31 | 0 | 0 |
| 610 | AceArtorias | 3:18.36 | 0 | 0 |
| 611 | Crimson Blood | 3:18.40 | 0 | 0 |
| 612 | hypernova1100 | 3:18.48 | 0 | 0 |
| 612 | Scourge of Taco Bell | 3:18.48 | 0 | 0 |
| 612 | Dust Man | 3:18.48 | 0 | 0 |
| 615 | Phil | 3:18.55 | 0 | 0 |
| 616 | Wolf Black | 3:18.57 | 0 | 0 |
| 617 | SomeGuy | 3:18.60 | 0 | 0 |
| 618 | Kleiner Lubittski | 3:18.65 | 0 | 0 |
| 619 | oSee | 3:18.67 | 0 | 0 |
| 619 | tomekk06 | 3:18.67 | 0 | 0 |
| 621 | Joey Bananas | 3:18.69 | 0 | 0 |
| 622 | i3ym | 3:18.76 | 0 | 0 |
| 623 | TotoSmith1992 | 3:18.77 | 0 | 0 |
| 624 | SaltedFork | 3:18.78 | 0 | 0 |
| 624 | LordBohne2 | 3:18.78 | 0 | 0 |
| 626 | Hazmatrifle | 3:18.85 | 0 | 0 |
| 627 | SmokedScreen | 3:18.90 | 0 | 0 |
| 627 | Purellfix | 3:18.90 | 0 | 0 |
| 629 | supercyborg64 | 3:18.91 | 0 | 0 |
| 630 | BananaMan | 3:18.96 | 0 | 0 |
| 631 | Detective Dia Diamond | 3:19.02 | 0 | 0 |
| 632 | ★ Miriam ☆ | 3:19.05 | 0 | 0 |
| 633 | Catgirl Chilis | 3:19.08 | 0 | 0 |
| 634 | YancY | 3:19.11 | 0 | 0 |
| 635 | Dexton VI | 3:19.14 | 0 | 0 |
| 636 | WolfGamesHD | 3:19.15 | 0 | 0 |
| 637 | Endymion | 3:19.16 | 0 | 0 |
| 638 | toasterpastries | 3:19.18 | 0 | 0 |
| 639 | Lone Otaku | 3:19.21 | 0 | 0 |
| 640 | *F2* | 3:19.22 | 0 | 0 |
| 641 | IceL1ght | 3:19.24 | 0 | 0 |
| 642 | Jeija | 3:19.26 | 0 | 0 |
| 643 | Zinsk130 [M4H] | 3:19.28 | 0 | 0 |
| 644 | Sonickaii | 3:19.29 | 0 | 0 |
| 645 | Enigmatic Flood | 3:19.35 | 0 | 0 |
| 646 | Grae Ryo | 3:19.37 | 0 | 0 |
| 647 | crazyjoerocks | 3:19.38 | 0 | 0 |
| 648 | Jezo | 3:19.40 | 0 | 0 |
| 649 | Delta25 | 3:19.42 | 0 | 0 |
| 650 | GRgregor | 3:19.45 | 0 | 0 |
| 651 | Bob | 3:19.60 | 0 | 0 |
| 652 | graveflower | 3:19.64 | 0 | 0 |
| 653 | ★ Star ★ | 3:19.71 | 0 | 0 |
| 654 | TKVA | 3:19.72 | 0 | 0 |
| 655 | Krow48 | 3:19.76 | 0 | 0 |
| 656 | khrisround2 | 3:19.77 | 0 | 0 |
| 657 | SlyFoxx | 3:19.79 | 0 | 0 |
| 657 | *Pocket Full of Summertime* Rell | 3:19.79 | 0 | 0 |
| 659 | Kuby | 3:19.80 | 0 | 0 |
| 660 | Rewnie | 3:19.84 | 0 | 0 |
| 661 | Ryuki | 3:19.85 | 0 | 0 |
| 662 | Entropy can't catch me. | 3:19.87 | 0 | 0 |
| 663 | MissJellyz029 | 3:19.88 | 0 | 0 |
| 664 | Drarrk | 3:19.90 | 0 | 0 |
| 665 | Horcrux | 3:19.91 | 0 | 0 |
| 666 | enzoagraterol | 3:19.93 | 0 | 0 |
| 667 | Rhetorical Question | 3:19.94 | 0 | 0 |
| 668 | [RC] | 3:19.95 | 0 | 0 |
| 669 | Jokmagic | 3:19.99 | 0 | 0 |
| 669 | Rocker | 3:19.99 | 0 | 0 |
| 671 | TwinHumanities | 3:20.00 | 0 | 0 |
| 672 | El Todo | 3:20.01 | 0 | 0 |
| 673 | MlleNatalya | 3:20.10 | 0 | 0 |
| 674 | PrimeCloudXII | 3:20.11 | 0 | 0 |
| 675 | Marcus | 3:20.14 | 0 | 0 |
| 676 | jonathan testicle | 3:20.17 | 0 | 0 |
| 677 | puter #MTWD | 3:20.24 | 0 | 0 |
| 678 | Punapple | 3:20.25 | 0 | 0 |
| 679 | Janitor | 3:20.38 | 0 | 0 |
| 680 | Onovek_Ekam | 3:20.47 | 0 | 0 |
| 681 | witemilk1 | 3:20.62 | 0 | 0 |
| 682 | Erwan | 3:20.84 | 0 | 0 |
| 683 | Amniotus | 3:20.89 | 0 | 0 |
| 684 | Dany W. | 3:21.09 | 0 | 0 |
| 685 | Nerologicals | 3:21.10 | 0 | 0 |
| 686 | MLGSOLAIRENOSCOPE360PRAISEIT420 | 3:21.12 | 0 | 0 |
| 687 | ʝetra | 3:21.30 | 0 | 0 |
| 688 | FlyeByNight | 3:21.33 | 0 | 0 |
| 689 | Giraffe | 3:21.36 | 0 | 0 |
| 690 | Twister | 3:21.42 | 0 | 0 |
| 691 | adrenwalker | 3:21.44 | 0 | 0 |
| 692 | Kumi | 3:21.46 | 0 | 0 |
| 693 | Redcost | 3:21.49 | 0 | 0 |
| 694 | Meridius_IX / Lucas | 3:21.52 | 0 | 0 |
| 695 | Flamingo | 3:21.55 | 0 | 0 |
| 696 | Fleabag | 3:21.58 | 0 | 0 |
| 697 | DJ_DubieWubie | 3:21.68 | 0 | 0 |
| 698 | Grave Packed | 3:21.72 | 0 | 0 |
| 698 | BeatBangerFan420 | 3:21.72 | 0 | 0 |
| 700 | ErzoopaRTR | 3:21.73 | 0 | 0 |
| 701 | muzzled_mutt | 3:21.75 | 0 | 0 |
| 702 | GLITCH | 3:21.86 | 0 | 0 |
| 703 | Mikaho | 3:21.87 | 0 | 0 |
| 703 | Hammo'sVoid | 3:21.87 | 0 | 0 |
| 705 | Plasma Snake | 3:21.91 | 0 | 0 |
| 706 | Damok | 3:21.93 | 0 | 0 |
| 706 | Porcozo | 3:21.93 | 0 | 0 |
| 708 | Buck | 3:21.94 | 0 | 0 |
| 709 | Xx_Daddy420_xX | 3:21.97 | 0 | 0 |
| 710 | Pjoxt | 3:22.04 | 0 | 0 |
| 711 | TinFoilMkIV | 3:22.08 | 0 | 0 |
| 711 | LDDestroier | 3:22.08 | 0 | 0 |
| 713 | infectedmist | 3:22.10 | 0 | 0 |
| 714 | Booper | 3:22.14 | 0 | 0 |
| 715 | Feanor | 3:22.22 | 0 | 0 |
| 716 | torcht | 3:22.33 | 0 | 0 |
| 716 | TimmothyNook | 3:22.33 | 0 | 0 |
| 718 | Dead | 3:22.48 | 0 | 0 |
| 719 | Paul E. Tician | 3:22.50 | 0 | 0 |
| 720 | Cool_Zeb | 3:22.51 | 0 | 0 |
| 721 | vixisdead | 3:22.55 | 0 | 0 |
| 722 | Loune Fire | 3:22.61 | 0 | 0 |
| 723 | Cerberus14 | 3:22.65 | 0 | 0 |
| 724 | Creepersrock24Gaming | 3:22.67 | 0 | 0 |
| 725 | AC Unit | 3:22.73 | 0 | 0 |
| 726 | ShadowFoxOkami | 3:22.75 | 0 | 0 |
| 727 | dannymac00 | 3:22.78 | 0 | 0 |
| 728 | Sayrix | 3:22.80 | 0 | 0 |
| 729 | TheEPROM9 LaTeX | 3:22.82 | 0 | 0 |
| 730 | Baruchi0915 | 3:22.85 | 0 | 0 |
| 731 | Junior | 3:22.95 | 0 | 0 |
| 732 | M1zz1x | 3:22.96 | 0 | 0 |
| 733 | -v- Mantis | 3:22.98 | 0 | 0 |
| 734 | BuzzM4H | 3:23.01 | 0 | 0 |
| 735 | Pepper, Belle M.D. | 3:23.12 | 0 | 0 |
| 736 | yes... yobby | 3:23.18 | 0 | 0 |
| 737 | Voltaic | 3:23.22 | 0 | 0 |
| 738 | Strayman | 3:23.40 | 0 | 0 |
| 739 | Yeephy | 3:23.41 | 0 | 0 |
| 740 | Bananbulance | 3:23.43 | 0 | 0 |
| 740 | Marco | 3:23.43 | 0 | 0 |
| 742 | The Pacific Spirit | 3:23.48 | 0 | 0 |
| 743 | MotionControls | 3:23.50 | 0 | 0 |
| 744 | Hoboborg | 3:23.52 | 0 | 0 |
| 744 | LissomChunk | 3:23.52 | 0 | 0 |
| 746 | Electrum55 | 3:23.57 | 0 | 0 |
| 747 | Eques | 3:23.61 | 0 | 0 |
| 748 | Digiten | 3:23.64 | 0 | 0 |
| 748 | Potat | 3:23.64 | 0 | 0 |
| 750 | Spiffy | 3:23.66 | 0 | 0 |
| 751 | Life of π | 3:23.68 | 0 | 0 |
| 752 | Slaerd | 3:23.69 | 0 | 0 |
| 753 | Big Bootiecoot | 3:23.77 | 0 | 0 |
| 754 | DuskBeast | 3:23.96 | 0 | 0 |
| 755 | Mogon | 3:23.97 | 0 | 0 |
| 756 | TTV.NoxDecious3 | 3:23.98 | 0 | 0 |
| 757 | WAKKACHUNG | 3:24.00 | 0 | 0 |
| 758 | Rudius Ampersand | 3:24.08 | 0 | 0 |
| 759 | Linkys0805 | 3:24.15 | 0 | 0 |
| 760 | ♥ Ivy The Clown ♥ | 3:24.16 | 0 | 0 |
| 761 | xXSec_Saven66duXx | 3:24.20 | 0 | 0 |
| 762 | Undead | 3:24.21 | 0 | 0 |
| 763 | Devilbacon | 3:24.24 | 0 | 0 |
| 764 | snugy_wumpkins [TNF] | 3:24.31 | 0 | 0 |
| 765 | Xterra | 3:24.40 | 0 | 0 |
| 766 | HaskSoft | 3:24.43 | 0 | 0 |
| 767 | JohnCorby | 3:24.44 | 0 | 0 |
| 768 | Ryukiza | 3:24.48 | 0 | 0 |
| 769 | Xyvine | 3:24.58 | 0 | 0 |
| 769 | Indecisive | 3:24.58 | 0 | 0 |
| 771 | Overlord | 3:24.69 | 0 | 0 |
| 772 | Pompous Whale | 3:24.73 | 0 | 0 |
| 773 | PleaseNoMore | 3:24.81 | 0 | 0 |
| 774 | chu2rocket | 3:24.83 | 0 | 0 |
| 775 | Inzarin | 3:24.88 | 0 | 0 |
| 776 | Eindolon | 3:25.00 | 0 | 0 |
| 777 | cyborg00789 | 3:25.04 | 0 | 0 |
| 778 | Razgriz7734 | 3:25.05 | 0 | 0 |
| 779 | Tem | 3:25.08 | 0 | 0 |
| 780 | EMPTY | 3:25.12 | 0 | 0 |
| 781 | julio_alexx | 3:25.18 | 0 | 0 |
| 782 | Drakal | 3:25.24 | 0 | 0 |
| 783 | Zsay | 3:25.32 | 0 | 0 |
| 784 | Naoroji | 3:25.38 | 0 | 0 |
| 785 | BingJ | 3:25.41 | 0 | 0 |
| 786 | cantadhastalospatos | 3:25.49 | 0 | 0 |
| 787 | AVeryTastyCactus | 3:25.52 | 0 | 0 |
| 788 | INDIANAgaby | 3:25.54 | 0 | 0 |
| 789 | Moenado | 3:25.60 | 0 | 0 |
| 790 | Zuras | 3:25.69 | 0 | 0 |
| 791 | 4thDimensionalGaySpaceAnarchist | 3:25.71 | 0 | 0 |
| 792 | Doritos® Locos Taco | 3:25.82 | 0 | 0 |
| 793 | BeachBum | 3:25.86 | 0 | 0 |
| 794 | Doggoby | 3:25.94 | 0 | 0 |
| 795 | Sirox | 3:25.95 | 0 | 0 |
| 796 | Llanfairpwllgwyngyllgogerychwyrn | 3:26.01 | 0 | 0 |
| 797 | xdacc | 3:26.05 | 0 | 0 |
| 798 | Anderstinkus | 3:26.07 | 0 | 0 |
| 799 | Inventor of sliced bread | 3:26.09 | 0 | 0 |
| 800 | Kevin McBacon | 3:26.13 | 0 | 0 |
| 801 | Selardian | 3:26.14 | 0 | 0 |
| 802 | RogueMartijn | 3:26.19 | 0 | 0 |
| 803 | Odin's Cactus | 3:26.21 | 0 | 0 |
| 803 | Bohemius | 3:26.21 | 0 | 0 |
| 805 | Nep | 3:26.22 | 0 | 0 |
| 806 | Kühli™ | 3:26.23 | 0 | 0 |
| 807 | Master Green Fox | 3:26.24 | 0 | 0 |
| 808 | Kaffeeclutch | 3:26.27 | 0 | 0 |
| 809 | ZaptorZap | 3:26.28 | 0 | 0 |
| 810 | Duffwuff | 3:26.38 | 0 | 0 |
| 811 | Ghghg348 | 3:26.39 | 0 | 0 |
| 812 | Tenth | 3:26.50 | 0 | 0 |
| 812 | ImTheo51 | 3:26.50 | 0 | 0 |
| 814 | Excess_JAm | 3:26.54 | 0 | 0 |
| 815 | Litanrk | 3:26.56 | 0 | 0 |
| 816 | Zaturols | 3:26.61 | 0 | 0 |
| 817 | Emmy Salebra | 3:26.62 | 0 | 0 |
| 817 | Michael_MaxPower | 3:26.62 | 0 | 0 |
| 819 | DevinShadowV | 3:26.70 | 0 | 0 |
| 820 | Galaxian | 3:26.72 | 0 | 0 |
| 821 | Kramatus | 3:26.74 | 0 | 0 |
| 821 | CeruleanAzura | 3:26.74 | 0 | 0 |
| 823 | Szion | 3:26.75 | 0 | 0 |
| 824 | Calvinball8 | 3:26.80 | 0 | 0 |
| 825 | Nuwa | 3:26.89 | 0 | 0 |
| 826 | bigphiish | 3:26.93 | 0 | 0 |
| 827 | Epsilon_Knight | 3:26.94 | 0 | 0 |
| 827 | TheBurningZeeT | 3:26.94 | 0 | 0 |
| 829 | Darklight96 | 3:26.95 | 0 | 0 |
| 829 | HJQLF | 3:26.95 | 0 | 0 |
| 831 | | 3:26.97 | 0 | 0 |
| 832 | Sir Ducksworth | 3:26.99 | 0 | 0 |
| 832 | Monsieur_Crabe | 3:26.99 | 0 | 0 |
| 834 | DeadEye | 3:27.00 | 0 | 0 |
| 835 | Echo 419 | 3:27.02 | 0 | 0 |
| 836 | TheWanderer05 | 3:27.03 | 0 | 0 |
| 837 | Jarminx | 3:27.05 | 0 | 0 |
| 838 | lupuscreed | 3:27.08 | 0 | 0 |
| 839 | Macblur2 | 3:27.12 | 0 | 0 |
| 839 | Jarek718 | 3:27.12 | 0 | 0 |
| 841 | EndlessGaming | 3:27.21 | 0 | 0 |
| 842 | raime | 3:27.31 | 0 | 0 |
| 843 | Omii.ARTT | 3:27.35 | 0 | 0 |
| 844 | bacon | 3:27.36 | 0 | 0 |
| 844 | McMackin | 3:27.36 | 0 | 0 |
| 846 | Ocean | 3:27.39 | 0 | 0 |
| 847 | and kevin bacon | 3:27.44 | 0 | 0 |
| 848 | ratgirl | 3:27.45 | 0 | 0 |
| 849 | BnN | 3:27.46 | 0 | 0 |
| 850 | GreatTrixiePony | 3:27.51 | 0 | 0 |
| 851 | Octelly | 3:27.55 | 0 | 0 |
| 852 | Kharmisle | 3:27.61 | 0 | 0 |
| 853 | Jabreen | 3:27.62 | 0 | 0 |
| 854 | TheBytemaster | 3:27.65 | 0 | 0 |
| 855 | VirtuaJosh | 3:27.77 | 0 | 0 |
| 856 | Canine Dragon | 3:27.84 | 0 | 0 |
| 856 | Varlok | 3:27.84 | 0 | 0 |
| 858 | Niko | 3:27.86 | 0 | 0 |
| 859 | Yeet_Master74 | 3:27.89 | 0 | 0 |
| 860 | Nephilim | 3:27.98 | 0 | 0 |
| 861 | ICRZero | 3:28.00 | 0 | 0 |
| 862 | SpanishJr パピ だよ!#MAGA | 3:28.02 | 0 | 0 |
| 863 | TheIllusiveGreg | 3:28.04 | 0 | 0 |
| 864 | Joselu25 | 3:28.05 | 0 | 0 |
| 865 | ✂👌☜✌☼✂ | 3:28.06 | 0 | 0 |
| 865 | Zenta | 3:28.06 | 0 | 0 |
| 867 | Bub | 3:28.07 | 0 | 0 |
| 868 | RemyTheSixth | 3:28.09 | 0 | 0 |
| 869 | Bean | 3:28.11 | 0 | 0 |
| 870 | BlueTitsMcFurryDream | 3:28.12 | 0 | 0 |
| 871 | Spleens | 3:28.14 | 0 | 0 |
| 872 | Isosceles | 3:28.16 | 0 | 0 |
| 873 | SNOWBUNNY MIND CONTROL | 3:28.20 | 0 | 0 |
| 874 | Idontevenknowyou! | 3:28.25 | 0 | 0 |
| 875 | F3.14D | 3:28.31 | 0 | 0 |
| 876 | Lord Daddy Baron Von Handsome | 3:28.34 | 0 | 0 |
| 876 | UNSCSayMyName | 3:28.34 | 0 | 0 |
| 878 | Stink Terios | 3:28.43 | 0 | 0 |
| 879 | The Insomniac | 3:28.46 | 0 | 0 |
| 880 | Λ | 3:28.53 | 0 | 0 |
| 881 | pager | 3:28.54 | 0 | 0 |
| 882 | Nexus | 3:28.56 | 0 | 0 |
| 883 | SwiFT aggro | 3:28.57 | 0 | 0 |
| 884 | Meat Cyclist | 3:28.60 | 0 | 0 |
| 884 | Yellow | 3:28.60 | 0 | 0 |
| 884 | Maf | 3:28.60 | 0 | 0 |
| 887 | Sage | 3:28.71 | 0 | 0 |
| 888 | drake147 | 3:28.72 | 0 | 0 |
| 888 | [BIT] Iroden | 3:28.72 | 0 | 0 |
| 890 | epo | 3:28.74 | 0 | 0 |
| 891 | Razor_ZXM | 3:28.83 | 0 | 0 |
| 892 | Shiroe | 3:28.84 | 0 | 0 |
| 893 | Darkness | 3:28.87 | 0 | 0 |
| 894 | Diminuto | 3:28.90 | 0 | 0 |
| 895 | Chicken Little | 3:28.97 | 0 | 0 |
| 896 | Mattman111 | 3:29.04 | 0 | 0 |
| 896 | PuppySky | 3:29.04 | 0 | 0 |
| 896 | Crojoe | 3:29.04 | 0 | 0 |
| 899 | Psy | 3:29.12 | 0 | 0 |
| 899 | Unit M4-S0N | 3:29.12 | 0 | 0 |
| 901 | DeluxeH30 | 3:29.17 | 0 | 0 |
| 902 | mirandaaaxo | 3:29.18 | 0 | 0 |
| 903 | eraks. | 3:29.19 | 0 | 0 |
| 904 | Ral | 3:29.21 | 0 | 0 |
| 905 | slyfoxlover | 3:29.26 | 0 | 0 |
| 906 | Some Bloke | 3:29.28 | 0 | 0 |
| 907 | Squidy_Blu | 3:29.31 | 0 | 0 |
| 908 | CERDITOA82 | 3:29.47 | 0 | 0 |
| 909 | NaterrPinata | 3:29.52 | 0 | 0 |
| 909 | 「Starlight Moonbow」 | 3:29.52 | 0 | 0 |
| 911 | EONTWINE | 3:29.55 | 0 | 0 |
| 912 | TheEdIsNotAmused | 3:29.60 | 0 | 0 |
| 913 | Iridium117 | 3:29.66 | 0 | 0 |
| 914 | Chrisden | 3:29.68 | 0 | 0 |
| 915 | Grenadine Poplar | 3:29.69 | 0 | 0 |
| 915 | Dokizoid | 3:29.69 | 0 | 0 |
| 917 | Yurirollrrir | 3:29.84 | 0 | 0 |
| 918 | Marweinicus | 3:29.85 | 0 | 0 |
| 919 | Davopia [M4H] | 3:29.86 | 0 | 0 |
| 919 | Tiyenti | 3:29.86 | 0 | 0 |
| 921 | Ren-Ren | 3:29.97 | 0 | 0 |
| 922 | Jepplez | 3:29.98 | 0 | 0 |
| 922 | WSBat | 3:29.98 | 0 | 0 |
| 924 | errant | 3:30.00 | 0 | 0 |
| 925 | Dillon Grubbich | 3:30.16 | 0 | 0 |
| 926 | SpongeJosh | 3:30.24 | 0 | 0 |
| 927 | incodrago | 3:30.31 | 0 | 0 |
| 928 | Canman | 3:30.35 | 0 | 0 |
| 929 | DjRobot | 3:30.44 | 0 | 0 |
| 930 | Rich Uncle Pennybags | 3:30.53 | 0 | 0 |
| 930 | effie 🌺 | 3:30.53 | 0 | 0 |
| 932 | ⏾chizuko✮ | 3:30.57 | 0 | 0 |
| 933 | fishie | 3:30.66 | 0 | 0 |
| 934 | T-A-R | 3:30.74 | 0 | 0 |
| 935 | Snuggle Kitten | 3:30.76 | 0 | 0 |
| 936 | SNACKS✔ | 3:30.90 | 0 | 0 |
| 937 | Biscuit | 3:30.94 | 0 | 0 |
| 938 | LIKANGRY | 3:31.01 | 0 | 0 |
| 938 | cubanito778 | 3:31.01 | 0 | 0 |
| 940 | KFC Value Meal | 3:31.05 | 0 | 0 |
| 941 | LastProngle | 3:31.06 | 0 | 0 |
| 942 | Simon Evo | 3:31.09 | 0 | 0 |
| 942 | crafty | 3:31.09 | 0 | 0 |
| 944 | InNOcentiae | 3:31.12 | 0 | 0 |
| 945 | Andy95 | 3:31.17 | 0 | 0 |
| 945 | Jonny | 3:31.17 | 0 | 0 |
| 947 | bryantmh | 3:31.21 | 0 | 0 |
| 948 | Sockman | 3:31.24 | 0 | 0 |
| 949 | Raphilius | 3:31.25 | 0 | 0 |
| 950 | CyannAkua | 3:31.31 | 0 | 0 |
| 951 | JoeBroski | 3:31.32 | 0 | 0 |
| 952 | forgidani | 3:31.33 | 0 | 0 |
| 953 | DrownedToSleep | 3:31.37 | 0 | 0 |
| 953 | Pablo de los Backyardigans | 3:31.37 | 0 | 0 |
| 955 | protag | 3:31.39 | 0 | 0 |
| 956 | SouperWING | 3:31.40 | 0 | 0 |
| 957 | Snerlop | 3:31.42 | 0 | 0 |
| 958 | levinv270 | 3:31.44 | 0 | 0 |
| 959 | Alex1on | 3:31.46 | 0 | 0 |
| 960 | PumPum | 3:31.52 | 0 | 0 |
| 961 | SerapH | 3:31.59 | 0 | 0 |
| 962 | stealthmonky11 | 3:31.69 | 0 | 0 |
| 963 | Aªrsern | 3:31.72 | 0 | 0 |
| 964 | Zenixic | 3:31.74 | 0 | 0 |
| 965 | wave | 3:31.76 | 0 | 0 |
| 966 | Tyrnavia | 3:31.79 | 0 | 0 |
| 967 | irken | 3:31.80 | 0 | 0 |
| 968 | Ar00lhoo | 3:31.86 | 0 | 0 |
| 969 | E0N | 3:31.88 | 0 | 0 |
| 970 | Karthax | 3:31.94 | 0 | 0 |
| 971 | Lady Vira | 3:31.97 | 0 | 0 |
| 972 | Nevera | 3:32.08 | 0 | 0 |
| 973 | Sin | 3:32.10 | 0 | 0 |
| 974 | Warriot | 3:32.15 | 0 | 0 |
| 975 | Keenstress | 3:32.25 | 0 | 0 |
| 976 | DonDevRed | 3:32.28 | 0 | 0 |
| 977 | ManGoop | 3:32.31 | 0 | 0 |
| 978 | Matt23019 | 3:32.42 | 0 | 0 |
| 979 | DanH95 | 3:32.60 | 0 | 0 |
| 979 | Thekingpsyduck | 3:32.60 | 0 | 0 |
| 981 | echance01 | 3:32.65 | 0 | 0 |
| 982 | Panzer Bros | 3:32.67 | 0 | 0 |
| 983 | Lumifur | 3:32.70 | 0 | 0 |
| 984 | VenomC312 | 3:32.77 | 0 | 0 |
| 985 | Crocer1 | 3:32.83 | 0 | 0 |
| 986 | elf genocide ok | 3:32.87 | 0 | 0 |
| 987 | adammaster64 | 3:32.94 | 0 | 0 |
| 988 | $teveɳ | 3:33.05 | 0 | 0 |
| 989 | DVRK PRISM | 3:33.10 | 0 | 0 |
| 990 | jetknife | 3:33.13 | 0 | 0 |
| 991 | HISKI LP | 3:33.20 | 0 | 0 |
| 992 | The Telecaster | 3:33.21 | 0 | 0 |
| 993 | Clovendeer | 3:33.24 | 0 | 0 |
| 994 | Silver_Siren | 3:33.26 | 0 | 0 |
| 995 | rexy | 3:33.27 | 0 | 0 |
| 996 | AK-47 | 3:33.37 | 0 | 0 |
| 997 | Rayder | 3:33.38 | 0 | 0 |
| 998 | -zaz23- | 3:33.44 | 0 | 0 |
| 999 | James "Papa Het" Hetfield | 3:33.56 | 0 | 0 |
| 1,000 | Orion | 3:33.73 | 0 | 0 |
| 1,001 | King Nios | 3:33.82 | 0 | 0 |
| 1,002 | Zacman | 3:33.84 | 0 | 0 |
| 1,003 | Chief | 3:33.91 | 0 | 0 |
| 1,004 | UwU | 3:33.94 | 0 | 0 |
| 1,005 | Simplify | 3:33.96 | 0 | 0 |
| 1,006 | lackieracing | 3:34.01 | 0 | 0 |
| 1,007 | Red King | 3:34.07 | 0 | 0 |
| 1,008 | NoBody | 3:34.15 | 0 | 0 |
| 1,009 | KIRBY484 | 3:34.16 | 0 | 0 |
| 1,010 | trans therian furry freak ΘΔ | 3:34.27 | 0 | 0 |
| 1,011 | Spaceship180 | 3:34.30 | 0 | 0 |
| 1,012 | The Unusual Suspect | 3:34.32 | 0 | 0 |
| 1,012 | Splendiferous Ryan | 3:34.32 | 0 | 0 |
| 1,012 | DarkWaulff | 3:34.32 | 0 | 0 |
| 1,015 | Swarchez | 3:34.49 | 0 | 0 |
| 1,016 | ConX | 3:34.50 | 0 | 0 |
| 1,017 | alkaah | 3:34.52 | 0 | 0 |
| 1,018 | Reid | 3:34.71 | 0 | 0 |
| 1,019 | Nintony | 3:34.76 | 0 | 0 |
| 1,020 | Prince 7 | 3:34.79 | 0 | 0 |
| 1,021 | tamgamecreator | 3:34.84 | 0 | 0 |
| 1,022 | Darth Techron | 3:34.92 | 0 | 0 |
| 1,023 | DVNT | 3:34.94 | 0 | 0 |
| 1,024 | Patches | 3:34.96 | 0 | 0 |
| 1,024 | Xarath | 3:34.96 | 0 | 0 |
| 1,026 | Jet Hex | 3:34.99 | 0 | 0 |
| 1,027 | Mentecapto- | 3:35.02 | 0 | 0 |
| 1,028 | Windsjorn | 3:35.08 | 0 | 0 |
| 1,029 | FreakingAwesomeWooper | 3:35.10 | 0 | 0 |
| 1,030 | Blacky Stranger | 3:35.11 | 0 | 0 |
| 1,031 | Bun Cruncher | 3:35.12 | 0 | 0 |
| 1,032 | Krey | 3:35.13 | 0 | 0 |
| 1,033 | ale16horizon | 3:35.14 | 0 | 0 |
| 1,034 | kol890 | 3:35.15 | 0 | 0 |
| 1,035 | Nekres | 3:35.27 | 0 | 0 |
| 1,036 | luck | 3:35.34 | 0 | 0 |
| 1,037 | Kepler | 3:35.42 | 0 | 0 |
| 1,038 | Aikend | 3:35.43 | 0 | 0 |
| 1,039 | CrazyManth3 | 3:35.47 | 0 | 0 |
| 1,040 | Dreigo | 3:35.48 | 0 | 0 |
| 1,041 | LvlGenesis | 3:35.54 | 0 | 0 |
| 1,042 | Chucker | 3:35.59 | 0 | 0 |
| 1,042 | danny1234331 | 3:35.59 | 0 | 0 |
| 1,044 | Chase Me | 3:35.64 | 0 | 0 |
| 1,045 | Lazarus | 3:35.73 | 0 | 0 |
| 1,046 | Sogram | 3:35.82 | 0 | 0 |
| 1,047 | Radar_Tech_Reece | 3:35.97 | 0 | 0 |
| 1,048 | Midnight | 3:35.98 | 0 | 0 |
| 1,049 | Xelonie⋆ | 3:35.99 | 0 | 0 |
| 1,050 | Golden Goblin | 3:36.01 | 0 | 0 |
| 1,051 | Frit_/x/ | 3:36.11 | 0 | 0 |
| 1,052 | GhostlyCryptid | 3:36.21 | 0 | 0 |
| 1,053 | Arika Springfield | 3:36.24 | 0 | 0 |
| 1,054 | cas8002 | 3:36.31 | 0 | 0 |
| 1,055 | vido games | 3:36.40 | 0 | 0 |
| 1,056 | Captain Qualms | 3:36.43 | 0 | 0 |
| 1,057 | Bum Farto | 3:36.63 | 0 | 0 |
| 1,057 | Astra Ashford | 3:36.63 | 0 | 0 |
| 1,059 | PhazonGLaDOS | 3:36.64 | 0 | 0 |
| 1,060 | Topaz95 | 3:36.74 | 0 | 0 |
| 1,061 | Migolovania | 3:36.75 | 0 | 0 |
| 1,062 | Sommelier de Doujin | 3:36.77 | 0 | 0 |
| 1,063 | Frinhaal | 3:36.82 | 0 | 0 |
| 1,064 | Naxam | 3:36.85 | 0 | 0 |
| 1,065 | soupdogg | 3:36.87 | 0 | 0 |
| 1,066 | Camyx | 3:36.91 | 0 | 0 |
| 1,067 | kuba | 3:36.96 | 0 | 0 |
| 1,067 | Weidorje | 3:36.96 | 0 | 0 |
| 1,069 | SupDos | 3:36.97 | 0 | 0 |
| 1,070 | Nayru | 3:36.98 | 0 | 0 |
| 1,071 | Readek | 3:37.10 | 0 | 0 |
| 1,072 | Piepie7204 | 3:37.11 | 0 | 0 |
| 1,073 | DkW | 3:37.14 | 0 | 0 |
| 1,074 | Psycho | 3:37.17 | 0 | 0 |
| 1,075 | Edragon | 3:37.18 | 0 | 0 |
| 1,076 | Dicearm | 3:37.22 | 0 | 0 |
| 1,077 | Nebron | 3:37.24 | 0 | 0 |
| 1,078 | ✿ Sirenistic ✿ | 3:37.33 | 0 | 0 |
| 1,079 | Vencer | 3:37.34 | 0 | 0 |
| 1,080 | speed | 3:37.37 | 0 | 0 |
| 1,081 | Crab with a cool hat | 3:37.38 | 0 | 0 |
| 1,082 | Steelkinn | 3:37.45 | 0 | 0 |
| 1,083 | Dracon von Elyssia | 3:37.48 | 0 | 0 |
| 1,084 | delfiler | 3:37.53 | 0 | 0 |
| 1,085 | ArcLyn | 3:37.61 | 0 | 0 |
| 1,086 | SolSkyline | 3:37.70 | 0 | 0 |
| 1,087 | 2-eeillustrationTTV | 3:37.71 | 0 | 0 |
| 1,088 | pox | 3:37.72 | 0 | 0 |
| 1,088 | overshock-v15 | 3:37.72 | 0 | 0 |
| 1,090 | fab | 3:37.77 | 0 | 0 |
| 1,091 | misky | 3:37.79 | 0 | 0 |
| 1,092 | Flameslicer | 3:37.80 | 0 | 0 |
| 1,092 | 『QPUNeptune』 | 3:37.80 | 0 | 0 |
| 1,094 | Ashraz | 3:37.81 | 0 | 0 |
| 1,095 | Alaina | 3:37.83 | 0 | 0 |
| 1,096 | Dorey348 | 3:37.84 | 0 | 0 |
| 1,097 | Cyn | 3:37.92 | 0 | 0 |
| 1,098 | hughamogus | 3:37.94 | 0 | 0 |
| 1,099 | Baron Baronowski | 3:37.99 | 0 | 0 |
| 1,100 | Phaidros | 3:38.05 | 0 | 0 |
| 1,101 | Alethemitic | 3:38.14 | 0 | 0 |
| 1,102 | Mr. 20k | 3:38.31 | 0 | 0 |
| 1,103 | L0RE | 3:38.33 | 0 | 0 |
| 1,104 | Penganator | 3:38.38 | 0 | 0 |
| 1,105 | DLanc | 3:38.40 | 0 | 0 |
| 1,106 | GeneralJoe25 | 3:38.53 | 0 | 0 |
| 1,107 | B3ATW0LF | 3:38.55 | 0 | 0 |
| 1,108 | DMRakdos | 3:38.69 | 0 | 0 |
| 1,108 | Sickk Drifft | 3:38.69 | 0 | 0 |
| 1,110 | Paradox | 3:38.74 | 0 | 0 |
| 1,111 | Etron | 3:38.77 | 0 | 0 |
| 1,112 | NBA Shounen | 3:38.85 | 0 | 0 |
| 1,113 | --TuttiFrutti-- | 3:38.90 | 0 | 0 |
| 1,114 | RunnyPilot | 3:38.93 | 0 | 0 |
| 1,115 | Kyllix | 3:39.00 | 0 | 0 |
| 1,116 | Ekimu | 3:39.04 | 0 | 0 |
| 1,117 | Shoobledoops | 3:39.05 | 0 | 0 |
| 1,117 | MommasTaco | 3:39.05 | 0 | 0 |
| 1,119 | Bicotemo | 3:39.12 | 0 | 0 |
| 1,120 | Glas | 3:39.22 | 0 | 0 |
| 1,121 | Zarragossa | 3:39.25 | 0 | 0 |
| 1,122 | Tim Starstriker | 3:39.36 | 0 | 0 |
| 1,123 | Lord | 3:39.57 | 0 | 0 |
| 1,124 | Joshy Grind | 3:39.59 | 0 | 0 |
| 1,124 | blacknole | 3:39.59 | 0 | 0 |
| 1,126 | krizithy | 3:39.65 | 0 | 0 |
| 1,127 | CaleoCX | 3:39.75 | 0 | 0 |
| 1,128 | GrendarFlynt | 3:39.85 | 0 | 0 |
| 1,129 | Dumb Poo Baby | 3:39.90 | 0 | 0 |
| 1,130 | Krawly | 3:40.07 | 0 | 0 |
| 1,131 | Britarnya | 3:40.08 | 0 | 0 |
| 1,132 | supersushicat1 | 3:40.09 | 0 | 0 |
| 1,133 | Breakfast Man | 3:40.11 | 0 | 0 |
| 1,134 | Gods drunkest driver | 3:40.17 | 0 | 0 |
| 1,135 | Avadem | 3:40.20 | 0 | 0 |
| 1,136 | CrazyH | 3:40.22 | 0 | 0 |
| 1,137 | ๋ | 3:40.43 | 0 | 0 |
| 1,138 | A Legal Alien | 3:40.48 | 0 | 0 |
| 1,138 | jvdxn | 3:40.48 | 0 | 0 |
| 1,140 | archedmaid | 3:40.49 | 0 | 0 |
| 1,141 | Mikokko | 3:40.62 | 0 | 0 |
| 1,141 | NULL; | 3:40.62 | 0 | 0 |
| 1,143 | Bakageyama | 3:40.63 | 0 | 0 |
| 1,144 | gay walrus | 3:40.65 | 0 | 0 |
| 1,145 | a fun noodle | 3:40.67 | 0 | 0 |
| 1,146 | GaliasG | 3:40.69 | 0 | 0 |
| 1,147 | Magnowser | 3:40.75 | 0 | 0 |
| 1,148 | Keskase | 3:40.81 | 0 | 0 |
| 1,149 | Rukaisho | 3:40.88 | 0 | 0 |
| 1,150 | DOOM | 3:40.91 | 0 | 0 |
| 1,150 | Yankee Joe | 3:40.91 | 0 | 0 |
| 1,152 | Altersky | 3:41.03 | 0 | 0 |
| 1,153 | JodoJutsu | 3:41.18 | 0 | 0 |
| 1,154 | Respectful King | 3:41.22 | 0 | 0 |
| 1,155 | Chegg | 3:41.25 | 0 | 0 |
| 1,156 | Amie | 3:41.26 | 0 | 0 |
| 1,157 | Ams012101 | 3:41.31 | 0 | 0 |
| 1,158 | DigiDragon64 | 3:41.41 | 0 | 0 |
| 1,159 | GhekkoO | 3:41.54 | 0 | 0 |
| 1,160 | Slug | 3:41.69 | 0 | 0 |
| 1,161 | Ginger | 3:41.76 | 0 | 0 |
| 1,162 | GhostSpider | 3:41.83 | 0 | 0 |
| 1,163 | An Innocuous Chef | 3:41.88 | 0 | 0 |
| 1,164 | Maxx | 3:41.99 | 0 | 0 |
| 1,165 | Mekso | 3:42.03 | 0 | 0 |
| 1,166 | Card N'FoRcE | 3:42.07 | 0 | 0 |
| 1,167 | Nezmend | 3:42.13 | 0 | 0 |
| 1,168 | KryptoJay | 3:42.15 | 0 | 0 |
| 1,169 | BenDaSpur | 3:42.22 | 0 | 0 |
| 1,169 | JK | 3:42.22 | 0 | 0 |
| 1,171 | Peril | 3:42.30 | 0 | 0 |
| 1,172 | V | 3:42.38 | 0 | 0 |
| 1,173 | Aquason | 3:42.39 | 0 | 0 |
| 1,174 | Thanatos | 3:42.42 | 0 | 0 |
| 1,175 | Jakrabbit | 3:42.43 | 0 | 0 |
| 1,176 | Margiella | 3:42.51 | 0 | 0 |
| 1,177 | Rokalus | 3:42.53 | 0 | 0 |
| 1,178 | Zelteir | 3:42.56 | 0 | 0 |
| 1,179 | TurboPasta | 3:42.57 | 0 | 0 |
| 1,180 | Laevennin | 3:42.70 | 0 | 0 |
| 1,181 | ChipmunkOnCrack | 3:42.95 | 0 | 0 |
| 1,182 | MolotovMarko | 3:42.99 | 0 | 0 |
| 1,183 | Leviathos | 3:43.00 | 0 | 0 |
| 1,184 | Naikel [FR] | 3:43.03 | 0 | 0 |
| 1,185 | Jutastre | 3:43.05 | 0 | 0 |
| 1,186 | Domino | 3:43.06 | 0 | 0 |
| 1,187 | James | 3:43.15 | 0 | 0 |
| 1,188 | Odaxelagnia | 3:43.20 | 0 | 0 |
| 1,189 | Antumarin | 3:43.24 | 0 | 0 |
| 1,190 | Renu-Renu | 3:43.26 | 0 | 0 |
| 1,191 | Inky | 3:43.31 | 0 | 0 |
| 1,192 | nightclubpositive | 3:43.42 | 0 | 0 |
| 1,193 | Dock | 3:43.43 | 0 | 0 |
| 1,194 | Sinton | 3:43.44 | 0 | 0 |
| 1,195 | SirEldricht | 3:43.45 | 0 | 0 |
| 1,196 | absurdich | 3:43.50 | 0 | 0 |
| 1,197 | antdude92 | 3:43.55 | 0 | 0 |
| 1,198 | NotDummySoul | 3:43.56 | 0 | 0 |
| 1,199 | ChèvreCiel | 3:43.57 | 0 | 0 |
| 1,200 | Stuhli | 3:43.61 | 0 | 0 |
| 1,200 | N1ko0L | 3:43.61 | 0 | 0 |
| 1,202 | toesucker519 | 3:43.62 | 0 | 0 |
| 1,203 | Ryoteer | 3:43.68 | 0 | 0 |
| 1,204 | DarthRadius | 3:43.74 | 0 | 0 |
| 1,205 | eriyo | 3:43.93 | 0 | 0 |
| 1,206 | PhoenixAmber | 3:43.98 | 0 | 0 |
| 1,207 | RetraraDragon | 3:44.02 | 0 | 0 |
| 1,208 | SnackLover | 3:44.07 | 0 | 0 |
| 1,209 | LuckyMist8 | 3:44.08 | 0 | 0 |
| 1,210 | MrTryPlay | 3:44.11 | 0 | 0 |
| 1,211 | Zenalli | 3:44.15 | 0 | 0 |
| 1,212 | wazzal | 3:44.20 | 0 | 0 |
| 1,212 | HeavenTrain | 3:44.20 | 0 | 0 |
| 1,214 | fancy barbecue | 3:44.24 | 0 | 0 |
| 1,215 | PootisMayo | 3:44.25 | 0 | 0 |
| 1,216 | LelouchXV3 | 3:44.39 | 0 | 0 |
| 1,217 | Agnes | 3:44.41 | 0 | 0 |
| 1,217 | dame da ne guy | 3:44.41 | 0 | 0 |
| 1,219 | LordPotato.json | 3:44.49 | 0 | 0 |
| 1,220 | Gam Gam Schleinberg | 3:44.64 | 0 | 0 |
| 1,221 | Kasane Teto | 3:44.65 | 0 | 0 |
| 1,222 | Tea. English Breakfast. Hot. | 3:44.70 | 0 | 0 |
| 1,223 | Aqua | 3:44.71 | 0 | 0 |
| 1,224 | NecroXenon | 3:44.77 | 0 | 0 |
| 1,225 | ☼ French Phoque ☼ | 3:44.91 | 0 | 0 |
| 1,226 | fluttershyrulez77 | 3:45.04 | 0 | 0 |
| 1,227 | Knaight | 3:45.15 | 0 | 0 |
| 1,228 | John Fortress 2 | 3:45.16 | 0 | 0 |
| 1,229 | SuperTechDragon | 3:45.18 | 0 | 0 |
| 1,230 | Daniel | 3:45.22 | 0 | 0 |
| 1,231 | Hex | 3:45.52 | 0 | 0 |
| 1,232 | h | 3:45.65 | 0 | 0 |
| 1,233 | Rex | 3:45.67 | 0 | 0 |
| 1,234 | Van Helsing | 3:45.71 | 0 | 0 |
| 1,235 | MYOTIS-LUCIFUGUS | 3:45.76 | 0 | 0 |
| 1,236 | Bubwubster | 3:45.85 | 0 | 0 |
| 1,237 | StayWeak | 3:45.91 | 0 | 0 |
| 1,238 | Reinforce Virta | 3:45.96 | 0 | 0 |
| 1,239 | Sir Banana | 3:46.01 | 0 | 0 |
| 1,240 | cocob4 | 3:46.08 | 0 | 0 |
| 1,241 | Cujo Cat :3 | 3:46.24 | 0 | 0 |
| 1,242 | Twinzninja | 3:46.26 | 0 | 0 |
| 1,243 | Dreamer72 | 3:46.30 | 0 | 0 |
| 1,244 | Sock | 3:46.33 | 0 | 0 |
| 1,245 | HeroicShadow | 3:46.34 | 0 | 0 |
| 1,246 | Ek | 3:46.48 | 0 | 0 |
| 1,247 | manashortage | 3:46.52 | 0 | 0 |
| 1,248 | shamshel | 3:46.73 | 0 | 0 |
| 1,248 | MileZ | 3:46.73 | 0 | 0 |
| 1,250 | SkyRunner888 | 3:46.81 | 0 | 0 |
| 1,251 | Vallypuff | 3:46.91 | 0 | 0 |
| 1,252 | Icicle | 3:46.94 | 0 | 0 |
| 1,253 | Chrimera tatics 2004 | 3:46.95 | 0 | 0 |
| 1,254 | Lankovich | 3:47.11 | 0 | 0 |
| 1,255 | Chademus Supreme | 3:47.19 | 0 | 0 |
| 1,256 | DonDimmadude | 3:47.26 | 0 | 0 |
| 1,257 | Malty | 3:47.27 | 0 | 0 |
| 1,258 | Xaeniq | 3:47.33 | 0 | 0 |
| 1,259 | KingDemonDonut | 3:47.47 | 0 | 0 |
| 1,260 | slyr17 | 3:47.74 | 0 | 0 |
| 1,261 | Umbreon™ | 3:47.75 | 0 | 0 |
| 1,261 | Тайно дёргал | 3:47.75 | 0 | 0 |
| 1,263 | CoaltlBirb | 3:47.80 | 0 | 0 |
| 1,264 | sicily_power | 3:47.83 | 0 | 0 |
| 1,265 | LucileStarlight | 3:47.96 | 0 | 0 |
| 1,266 | petlander | 3:47.98 | 0 | 0 |
| 1,267 | SpaceWhale | 3:47.99 | 0 | 0 |
| 1,268 | Giorgo | 3:48.00 | 0 | 0 |
| 1,269 | Juju | 3:48.05 | 0 | 0 |
| 1,270 | cenho09 | 3:48.06 | 0 | 0 |
| 1,271 | fischpferd | 3:48.11 | 0 | 0 |
| 1,272 | Sensei Mcskinnyb | 3:48.18 | 0 | 0 |
| 1,273 | Pazzia | 3:48.21 | 0 | 0 |
| 1,274 | McCocoa | 3:48.24 | 0 | 0 |
| 1,275 | Snazzy Panda | 3:48.28 | 0 | 0 |
| 1,276 | The Maniac | 3:48.30 | 0 | 0 |
| 1,276 | DineAuZor | 3:48.30 | 0 | 0 |
| 1,278 | BoiBoiCleetus567 | 3:48.31 | 0 | 0 |
| 1,279 | JayCee Squared - Sub to YT | 3:48.32 | 0 | 0 |
| 1,280 | Venslifebelike | 3:48.56 | 0 | 0 |
| 1,281 | Snowz | 3:48.57 | 0 | 0 |
| 1,282 | Sekran93 | 3:48.60 | 0 | 0 |
| 1,283 | Todesschnitzel25 | 3:48.62 | 0 | 0 |
| 1,284 | Slyppa | 3:48.63 | 0 | 0 |
| 1,285 | OceansAteRobbie | 3:48.64 | 0 | 0 |
| 1,286 | JDHmonkeyboy | 3:48.68 | 0 | 0 |
| 1,287 | Savo | 3:48.95 | 0 | 0 |
| 1,288 | DigiTyze | 3:49.10 | 0 | 0 |
| 1,289 | JohnOfNoTrade | 3:49.15 | 0 | 0 |
| 1,290 | Vortexesz | 3:49.25 | 0 | 0 |
| 1,291 | Wik | 3:49.36 | 0 | 0 |
| 1,292 | Timher | 3:49.37 | 0 | 0 |
| 1,293 | sMartin | 3:49.39 | 0 | 0 |
| 1,294 | Ish | 3:49.67 | 0 | 0 |
| 1,295 | Leonard Gavin | 3:49.75 | 0 | 0 |
| 1,296 | punX | 3:49.84 | 0 | 0 |
| 1,297 | Kunya The Scoot | 3:49.85 | 0 | 0 |
| 1,298 | DystopianFunk | 3:49.98 | 0 | 0 |
| 1,299 | Madman15 | 3:50.04 | 0 | 0 |
| 1,300 | patar | 3:50.06 | 0 | 0 |
| 1,301 | Khelan | 3:50.10 | 0 | 0 |
| 1,301 | Trithon_ | 3:50.10 | 0 | 0 |
| 1,303 | Spirend | 3:50.49 | 0 | 0 |
| 1,304 | Maagnatism | 3:50.52 | 0 | 0 |
| 1,305 | DL | 3:50.54 | 0 | 0 |
| 1,306 | 4 Bore | 3:50.55 | 0 | 0 |
| 1,307 | CaptFatHands | 3:50.56 | 0 | 0 |
| 1,308 | EzraW118 | 3:50.59 | 0 | 0 |
| 1,309 | Kryptics | 3:50.68 | 0 | 0 |
| 1,310 | KiraSBD | 3:50.69 | 0 | 0 |
| 1,311 | trieason | 3:50.70 | 0 | 0 |
| 1,312 | Mupis | 3:50.77 | 0 | 0 |
| 1,313 | TenDream | 3:50.81 | 0 | 0 |
| 1,314 | Your Fav Baka | 3:50.92 | 0 | 0 |
| 1,315 | Poison | 3:50.93 | 0 | 0 |
| 1,316 | DarkVoyager | 3:51.02 | 0 | 0 |
| 1,317 | weekend31 | 3:51.04 | 0 | 0 |
| 1,318 | Noa3 | 3:51.16 | 0 | 0 |
| 1,319 | Paplo | 3:51.22 | 0 | 0 |
| 1,320 | Wolfedelic ᐰ | 3:51.24 | 0 | 0 |
| 1,321 | Dakusan | 3:51.49 | 0 | 0 |
| 1,322 | Static the Pet | 3:51.51 | 0 | 0 |
| 1,323 | glitchthe3rd | 3:51.56 | 0 | 0 |
| 1,324 | Dracheron | 3:51.59 | 0 | 0 |
| 1,325 | iChris4 | 3:51.64 | 0 | 0 |
| 1,326 | M.C. Splashdown | 3:51.77 | 0 | 0 |
| 1,327 | Adm | 3:52.08 | 0 | 0 |
| 1,328 | Blushy Wushy | 3:52.11 | 0 | 0 |
| 1,329 | Velion | 3:52.12 | 0 | 0 |
| 1,330 | Dabz | 3:52.13 | 0 | 0 |
| 1,331 | Монарх | 3:52.20 | 0 | 0 |
| 1,332 | lift ur pooltoy tail for me | 3:52.25 | 0 | 0 |
| 1,333 | Bronzeclaw | 3:52.37 | 0 | 0 |
| 1,334 | estroa | 3:52.38 | 0 | 0 |
| 1,335 | Biscuit ビスケット | 3:52.40 | 0 | 0 |
| 1,336 | Vote For Me, Goth Baddies For U | 3:52.52 | 0 | 0 |
| 1,337 | DustinEden | 3:52.54 | 0 | 0 |
| 1,338 | RANDOMHERO757 | 3:52.57 | 0 | 0 |
| 1,339 | VYKING | 3:52.63 | 0 | 0 |
| 1,340 | Honeyball | 3:52.66 | 0 | 0 |
| 1,341 | Sareen Xie | 3:52.67 | 0 | 0 |
| 1,342 | GentleHawkes | 3:52.69 | 0 | 0 |
| 1,343 | Kalimbato | 3:52.74 | 0 | 0 |
| 1,343 | rektlikeman | 3:52.74 | 0 | 0 |
| 1,345 | Spider | 3:52.81 | 0 | 0 |
| 1,346 | MechaRiolu | 3:52.95 | 0 | 0 |
| 1,347 | . | 3:52.96 | 0 | 0 |
| 1,347 | corianasix | 3:52.96 | 0 | 0 |
| 1,349 | SmolSucc | 3:53.12 | 0 | 0 |
| 1,350 | VortexD | 3:53.13 | 0 | 0 |
| 1,351 | Cripy | 3:53.15 | 0 | 0 |
| 1,352 | niktorious | 3:53.18 | 0 | 0 |
| 1,353 | SteelCougar307 | 3:53.22 | 0 | 0 |
| 1,354 | EmeraldVCR | 3:53.25 | 0 | 0 |
| 1,355 | DarknessRunner | 3:53.26 | 0 | 0 |
| 1,356 | Radiator Syrup | 3:53.30 | 0 | 0 |
| 1,357 | Z E R K E 1 D | 3:53.33 | 0 | 0 |
| 1,358 | MP X10L | 3:53.37 | 0 | 0 |
| 1,359 | Mouqisti | 3:53.39 | 0 | 0 |
| 1,360 | CPTKevman | 3:53.53 | 0 | 0 |
| 1,361 | WIIZZIE | 3:53.55 | 0 | 0 |
| 1,361 | Dragonflare57 | 3:53.55 | 0 | 0 |
| 1,363 | HolyHeckfire | 3:53.68 | 0 | 0 |
| 1,364 | SPEEDYSPEEDBOI | 3:53.81 | 0 | 0 |
| 1,365 | GingyNinjy | 3:53.87 | 0 | 0 |
| 1,366 | Dyltra | 3:53.89 | 0 | 0 |
| 1,367 | Aztrelix | 3:53.90 | 0 | 0 |
| 1,368 | Mr. Beefy | 3:53.91 | 0 | 0 |
| 1,369 | kikiokyo | 3:53.97 | 0 | 0 |
| 1,370 | Jayne | 3:54.06 | 0 | 0 |
| 1,371 | droomlup | 3:54.15 | 0 | 0 |
| 1,371 | Wognyyy | 3:54.15 | 0 | 0 |
| 1,373 | Lemonzfoyew | 3:54.28 | 0 | 0 |
| 1,374 | R3dHaired | 3:54.53 | 0 | 0 |
| 1,375 | Rawrxd | 3:54.54 | 0 | 0 |
| 1,376 | Loading... | 3:54.55 | 0 | 0 |
| 1,377 | Vyneci | 3:54.60 | 0 | 0 |
| 1,378 | Poptarticus | 3:54.81 | 0 | 0 |
| 1,378 | ZW98 | 3:54.81 | 0 | 0 |
| 1,380 | Zeo | 3:54.90 | 0 | 0 |
| 1,381 | RogueDarkness | 3:55.01 | 0 | 0 |
| 1,382 | BeeVeelutions | 3:55.12 | 0 | 0 |
| 1,383 | LoopMix | 3:55.21 | 0 | 0 |
| 1,384 | Ω Compu | 3:55.22 | 0 | 0 |
| 1,384 | Gleason2 | 3:55.22 | 0 | 0 |
| 1,386 | SHAM-ROCK | 3:55.50 | 0 | 0 |
| 1,387 | Toady | 3:55.53 | 0 | 0 |
| 1,388 | Voxal Floor | 3:55.64 | 0 | 0 |
| 1,389 | NotChrysalis | 3:55.69 | 0 | 0 |
| 1,390 | The Metric System | 3:55.79 | 0 | 0 |
| 1,391 | BusterThink | 3:55.83 | 0 | 0 |
| 1,392 | TiredInsanity | 3:56.05 | 0 | 0 |
| 1,393 | sleep | 3:56.08 | 0 | 0 |
| 1,394 | DForce2013 | 3:56.13 | 0 | 0 |
| 1,395 | Ashley The Candywolf | 3:56.16 | 0 | 0 |
| 1,396 | Grindsalat | 3:56.20 | 0 | 0 |
| 1,397 | Jacob The Pope | 3:56.23 | 0 | 0 |
| 1,398 | LaniusAetherion | 3:56.33 | 0 | 0 |
| 1,399 | Dee La "Dota" Tew: The Third | 3:56.41 | 0 | 0 |
| 1,400 | EonShark | 3:56.46 | 0 | 0 |
| 1,401 | Malachite__ | 3:56.48 | 0 | 0 |
| 1,402 | auz | 3:56.62 | 0 | 0 |
| 1,403 | Vicinger | 3:56.63 | 0 | 0 |
| 1,404 | Phaserlight | 3:56.70 | 0 | 0 |
| 1,405 | Embylles | 3:56.81 | 0 | 0 |
| 1,406 | BluHyena | 3:56.85 | 0 | 0 |
| 1,407 | notAlex | 3:56.95 | 0 | 0 |
| 1,408 | SSBluey | 3:56.99 | 0 | 0 |
| 1,408 | Zeno | 3:56.99 | 0 | 0 |
| 1,408 | Spoon™ | 3:56.99 | 0 | 0 |
| 1,411 | komodo | 3:57.05 | 0 | 0 |
| 1,412 | Minerbot | 3:57.08 | 0 | 0 |
| 1,413 | Tilin | 3:57.19 | 0 | 0 |
| 1,414 | GekoKid | 3:57.25 | 0 | 0 |
| 1,415 | Samoose | 3:57.28 | 0 | 0 |
| 1,416 | A Flying Sloth | 3:57.37 | 0 | 0 |
| 1,417 | Koolio | 3:57.40 | 0 | 0 |
| 1,418 | RudiRammler | 3:57.42 | 0 | 0 |
| 1,419 | riceinmypp | 3:57.50 | 0 | 0 |
| 1,420 | ed911 | 3:57.51 | 0 | 0 |
| 1,421 | Iridescent-Charmed | 3:57.53 | 0 | 0 |
| 1,422 | B-Cacto | 3:57.70 | 0 | 0 |
| 1,422 | Your mate | 3:57.70 | 0 | 0 |
| 1,424 | TheAceShiesty | 3:57.74 | 0 | 0 |
| 1,425 | Pete | 3:57.76 | 0 | 0 |
| 1,426 | enJohneering | 3:57.80 | 0 | 0 |
| 1,427 | stinklingus | 3:57.84 | 0 | 0 |
| 1,428 | Wehavecookies53 | 3:57.92 | 0 | 0 |
| 1,429 | Ducktracio | 3:57.99 | 0 | 0 |
| 1,430 | Darthclone2 | 3:58.05 | 0 | 0 |
| 1,431 | Not without my cans! | 3:58.11 | 0 | 0 |
| 1,432 | VitaminDeez | 3:58.12 | 0 | 0 |
| 1,433 | Nimo | 3:58.14 | 0 | 0 |
| 1,434 | KamikazeKitaze | 3:58.17 | 0 | 0 |
| 1,435 | vantage1231 | 3:58.24 | 0 | 0 |
| 1,436 | GreenHydreigon | 3:58.30 | 0 | 0 |
| 1,437 | i_sandwhich | 3:58.31 | 0 | 0 |
| 1,438 | Fatso on the run™ | 3:58.39 | 0 | 0 |
| 1,439 | 76561198050031659 | 3:58.71 | 0 | 0 |
| 1,440 | Mister Sea | 3:58.78 | 0 | 0 |
| 1,441 | GodEmperorDoge | 3:58.88 | 0 | 0 |
| 1,442 | Javeh | 3:59.04 | 0 | 0 |
| 1,443 | Crusader | 3:59.10 | 0 | 0 |
| 1,444 | Sneaker | 3:59.16 | 0 | 0 |
| 1,445 | Percival the Proprietary Penguin | 3:59.20 | 0 | 0 |
| 1,446 | Spardicat | 3:59.26 | 0 | 0 |
| 1,447 | Freepo | 3:59.28 | 0 | 0 |
| 1,448 | ObsidianMiner13 | 3:59.36 | 0 | 0 |
| 1,449 | Própolis | 3:59.37 | 0 | 0 |
| 1,450 | Dycku | 3:59.49 | 0 | 0 |
| 1,451 | Tilikum | 3:59.53 | 0 | 0 |
| 1,452 | KhrisVC | 3:59.60 | 0 | 0 |
| 1,453 | DimoH | 3:59.62 | 0 | 0 |
| 1,454 | proteus bomber2 | 3:59.70 | 0 | 0 |
| 1,455 | _fishp0cket | 3:59.76 | 0 | 0 |
| 1,456 | throbbing_fish | 3:59.82 | 0 | 0 |
| 1,457 | smashingdrop17 | 3:59.86 | 0 | 0 |
| 1,458 | Gold Team | 3:59.94 | 0 | 0 |
| 1,459 | IncandescentSun☀ | 4:00.04 | 0 | 0 |
| 1,459 | Not Picha Corter 777 (VAC :D) | 4:00.04 | 0 | 0 |
| 1,461 | Cooler Mensch | 4:00.39 | 0 | 0 |
| 1,462 | davislb2 | 4:00.50 | 0 | 0 |
| 1,463 | ttvZomjey08 | 4:00.52 | 0 | 0 |
| 1,463 | jay_ | 4:00.52 | 0 | 0 |
| 1,465 | Felix GER | 4:00.55 | 0 | 0 |
| 1,466 | Gelo | 4:00.64 | 0 | 0 |
| 1,467 | Spicer | 4:00.73 | 0 | 0 |
| 1,468 | sendthefish | 4:00.91 | 0 | 0 |
| 1,468 | shrümii | 4:00.91 | 0 | 0 |
| 1,468 | Voltsu | 4:00.91 | 0 | 0 |
| 1,471 | TheRedGhost | 4:00.94 | 0 | 0 |
| 1,472 | Felicia The Desert Fox | 4:00.96 | 0 | 0 |
| 1,473 | Fatboy | 4:01.07 | 0 | 0 |
| 1,474 | Lars | 4:01.17 | 0 | 0 |
| 1,475 | jonnywips | 4:01.30 | 0 | 0 |
| 1,476 | Fireball Jr. Numba 2 | 4:01.46 | 0 | 0 |
| 1,477 | Voney | 4:01.72 | 0 | 0 |
| 1,478 | Rip | 4:02.07 | 0 | 0 |
| 1,479 | Leviticus Blue | 4:02.08 | 0 | 0 |
| 1,480 | Chase | 4:02.33 | 0 | 0 |
| 1,481 | kaze | 4:02.36 | 0 | 0 |
| 1,482 | Technoboss28 | 4:02.39 | 0 | 0 |
| 1,483 | ForeignPigeonHD | 4:02.60 | 0 | 0 |
| 1,484 | Razor | 4:02.82 | 0 | 0 |
| 1,485 | princebrightstar | 4:02.83 | 0 | 0 |
| 1,486 | OkayKelp | 4:02.86 | 0 | 0 |
| 1,487 | Cthulhu Calamari /|\(;,;)/|\ | 4:02.89 | 0 | 0 |
| 1,488 | Breno_SO | 4:02.95 | 0 | 0 |
| 1,489 | Lefty | 4:03.15 | 0 | 0 |
| 1,490 | Sw1tchi | 4:03.18 | 0 | 0 |
| 1,491 | FurryTrash™ | 4:03.21 | 0 | 0 |
| 1,492 | Van | 4:03.31 | 0 | 0 |
| 1,493 | Spacefarer | 4:03.34 | 0 | 0 |
| 1,494 | Red | 4:03.45 | 0 | 0 |
| 1,495 | chibikate | 4:03.50 | 0 | 0 |
| 1,496 | SavvySoviet | 4:03.55 | 0 | 0 |
| 1,497 | Blahaj Blast | 4:03.62 | 0 | 0 |
| 1,498 | Aerox | 4:03.64 | 0 | 0 |
| 1,499 | Alexander | 4:03.69 | 0 | 0 |
| 1,500 | PinhaT | 4:03.77 | 0 | 0 |
| 1,501 | UWUDestroyer69 | 4:04.02 | 0 | 0 |
| 1,502 | vZ.R3DBACK | 4:04.29 | 0 | 0 |
| 1,503 | Porte Patio 76 | 4:04.30 | 0 | 0 |
| 1,504 | Xefibo | 4:04.39 | 0 | 0 |
| 1,505 | MudVulpo | 4:04.52 | 0 | 0 |
| 1,506 | shadow | 4:04.89 | 0 | 0 |
| 1,507 | bibendum | 4:04.92 | 0 | 0 |
| 1,508 | Hugh Munculus | 4:04.95 | 0 | 0 |
| 1,509 | Hômɓer | 4:04.98 | 0 | 0 |
| 1,510 | Spearmint | 4:05.02 | 0 | 0 |
| 1,511 | JasterPax | 4:05.08 | 0 | 0 |
| 1,512 | Maxas | 4:05.10 | 0 | 0 |
| 1,513 | Dark Arc | 4:05.15 | 0 | 0 |
| 1,514 | mizetaylor19 | 4:05.23 | 0 | 0 |
| 1,515 | Alx.727 | 4:05.24 | 0 | 0 |
| 1,516 | Stagus | 4:05.30 | 0 | 0 |
| 1,516 | Sgt_Snowcone | 4:05.30 | 0 | 0 |
| 1,518 | The Stig | 4:05.38 | 0 | 0 |
| 1,519 | levente.lenoir | 4:05.54 | 0 | 0 |
| 1,520 | FabioTheTurtle | 4:05.59 | 0 | 0 |
| 1,521 | kris754a | 4:05.62 | 0 | 0 |
| 1,522 | cheesymantisfondue | 4:05.65 | 0 | 0 |
| 1,523 | Glófaxi | 4:05.66 | 0 | 0 |
| 1,524 | SITH066 | 4:05.74 | 0 | 0 |
| 1,525 | Dr_Jamaymay | 4:05.78 | 0 | 0 |
| 1,526 | Midnight Sky ✨🌙✨ | 4:05.86 | 0 | 0 |
| 1,527 | thom6777 | 4:06.06 | 0 | 0 |
| 1,528 | Theus | 4:06.07 | 0 | 0 |
| 1,529 | JeutronicGoat | 4:06.24 | 0 | 0 |
| 1,530 | Degeneracy | 4:06.33 | 0 | 0 |
| 1,531 | monica | 4:06.41 | 0 | 0 |
| 1,532 | Justin Timberlake | 4:06.46 | 0 | 0 |
| 1,532 | [GER] Van Feliciana | 4:06.46 | 0 | 0 |
| 1,534 | ProjecThorn™ | 4:06.51 | 0 | 0 |
| 1,535 | AutoChrome | 4:06.54 | 0 | 0 |
| 1,536 | Bielsitos | 4:06.55 | 0 | 0 |
| 1,537 | Vigellence | 4:06.65 | 0 | 0 |
| 1,538 | SoulsCommand | 4:06.74 | 0 | 0 |
| 1,539 | yowie hole | 4:06.88 | 0 | 0 |
| 1,540 | MaxMinded | 4:06.95 | 0 | 0 |
| 1,541 | MELOoMAN | 4:07.08 | 0 | 0 |
| 1,542 | Super Savs | 4:07.10 | 0 | 0 |
| 1,543 | SenuDumbledore | 4:07.11 | 0 | 0 |
| 1,544 | Mirabeau | 4:07.18 | 0 | 0 |
| 1,545 | SonicSupremacistYT | 4:07.27 | 0 | 0 |
| 1,546 | Barron | 4:07.30 | 0 | 0 |
| 1,547 | frankzirk | 4:07.39 | 0 | 0 |
| 1,548 | nintendude794 | 4:07.46 | 0 | 0 |
| 1,549 | Mojk | 4:07.51 | 0 | 0 |
| 1,550 | christianleo333 | 4:07.57 | 0 | 0 |
| 1,551 | Foxx | 4:07.68 | 0 | 0 |
| 1,552 | Feel Like Im Fuckin This Fallguy | 4:07.81 | 0 | 0 |
| 1,553 | MystykZ | 4:07.96 | 0 | 0 |
| 1,554 | Dakotah2468 | 4:08.09 | 0 | 0 |
| 1,555 | Gear_Change_The_Earth_Pony | 4:08.12 | 0 | 0 |
| 1,556 | FirstController | 4:08.13 | 0 | 0 |
| 1,557 | A Wee Fetus | 4:08.20 | 0 | 0 |
| 1,558 | Zarifi | 4:08.37 | 0 | 0 |
| 1,558 | MaverickGodEater | 4:08.37 | 0 | 0 |
| 1,560 | Vini300 | 4:08.43 | 0 | 0 |
| 1,561 | Hazzle | 4:08.48 | 0 | 0 |
| 1,562 | mkay | 4:08.51 | 0 | 0 |
| 1,563 | blackmaester | 4:08.54 | 0 | 0 |
| 1,564 | Bignasty75 | 4:08.62 | 0 | 0 |
| 1,565 | Jaunuolis | 4:08.73 | 0 | 0 |
| 1,566 | femptocrisis | 4:08.74 | 0 | 0 |
| 1,567 | Shinrararara | 4:08.86 | 0 | 0 |
| 1,568 | Echomus | 4:08.89 | 0 | 0 |
| 1,569 | Athetos | 4:08.98 | 0 | 0 |
| 1,570 | Thermo | 4:08.99 | 0 | 0 |
| 1,571 | Thoqkeezium Reginald the 3rd | 4:09.12 | 0 | 0 |
| 1,572 | ǂ | 4:09.16 | 0 | 0 |
| 1,573 | WsDharsh | 4:09.22 | 0 | 0 |
| 1,574 | kakakakauan | 4:09.26 | 0 | 0 |
| 1,574 | SolarNougat | 4:09.26 | 0 | 0 |
| 1,576 | Shina | 4:09.29 | 0 | 0 |
| 1,577 | Glory | 4:09.37 | 0 | 0 |
| 1,578 | Jazbah | 4:09.41 | 0 | 0 |
| 1,579 | <pixl> 🌌 | 4:09.44 | 0 | 0 |
| 1,580 | RadiantEmerald | 4:09.47 | 0 | 0 |
| 1,581 | RigaTony | 4:09.58 | 0 | 0 |
| 1,582 | . | 4:09.67 | 0 | 0 |
| 1,583 | Earthnuker | 4:09.93 | 0 | 0 |
| 1,583 | Goldziu | 4:09.93 | 0 | 0 |
| 1,585 | icewindow | 4:10.01 | 0 | 0 |
| 1,586 | Oceanus | 4:10.09 | 0 | 0 |
| 1,587 | Mattiator | 4:10.13 | 0 | 0 |
| 1,588 | hoppits | 4:10.36 | 0 | 0 |
| 1,589 | Love-Spattered Festive Bug | 4:10.37 | 0 | 0 |
| 1,590 | MaxYakuzah | 4:10.39 | 0 | 0 |
| 1,591 | DaHam | 4:10.44 | 0 | 0 |
| 1,592 | Justburner | 4:10.75 | 0 | 0 |
| 1,593 | 11th Tsuki蠍座 | 4:10.92 | 0 | 0 |
| 1,594 | TitanSpider70 | 4:10.95 | 0 | 0 |
| 1,595 | CinnamonBunBun | 4:11.14 | 0 | 0 |
| 1,595 | Dingo | 4:11.14 | 0 | 0 |
| 1,597 | Mama Luigi | 4:11.40 | 0 | 0 |
| 1,598 | Bread Boi | 4:11.45 | 0 | 0 |
| 1,599 | samasabi | 4:11.56 | 0 | 0 |
| 1,600 | post_red | 4:11.69 | 0 | 0 |
| 1,601 | Me0wzipan | 4:11.78 | 0 | 0 |
| 1,602 | Lakrits | 4:11.90 | 0 | 0 |
| 1,603 | hyrule13 | 4:11.93 | 0 | 0 |
| 1,604 | John | 4:12.12 | 0 | 0 |
| 1,605 | Rhinoceritis | 4:12.34 | 0 | 0 |
| 1,606 | Mändy der Zerstörer | 4:12.45 | 0 | 0 |
| 1,606 | Drippi Luigi | 4:12.45 | 0 | 0 |
| 1,608 | Shooter | 4:12.46 | 0 | 0 |
| 1,609 | Coding_Niclas | 4:12.52 | 0 | 0 |
| 1,610 | Gnarrang | 4:12.94 | 0 | 0 |
| 1,611 | PolarLI | 4:13.14 | 0 | 0 |
| 1,612 | Aether176 | 4:13.28 | 0 | 0 |
| 1,613 | SirFisty | 4:13.35 | 0 | 0 |
| 1,614 | Gil Mix Diversos 01 | 4:13.38 | 0 | 0 |
| 1,615 | yourGrigor | 4:13.39 | 0 | 0 |
| 1,616 | Astrelt | 4:13.44 | 0 | 0 |
| 1,617 | TJ090 | 4:13.55 | 0 | 0 |
| 1,618 | Birb | 4:13.73 | 0 | 0 |
| 1,619 | Zokas | 4:13.75 | 0 | 0 |
| 1,619 | chesh-19 | 4:13.75 | 0 | 0 |
| 1,621 | XeeNon | 4:13.89 | 0 | 0 |
| 1,622 | THE_ORONCO | 4:13.91 | 0 | 0 |
| 1,623 | YumeMiya | 4:13.93 | 0 | 0 |
| 1,624 | Jack Attack | 4:13.95 | 0 | 0 |
| 1,625 | dark kirby | 4:14.06 | 0 | 0 |
| 1,626 | Your Local Jordan | 4:14.13 | 0 | 0 |
| 1,627 | A̶͓̓z̷͓̍ũ̴̩r̷͔͐e̴ | 4:14.14 | 0 | 0 |
| 1,628 | Gamerguy48 | 4:14.16 | 0 | 0 |
| 1,629 | Its Ge | 4:14.21 | 0 | 0 |
| 1,630 | 4ever-.(Player)+*m*+ | 4:14.28 | 0 | 0 |
| 1,631 | Can a helper borrow a sinner's? | 4:14.35 | 0 | 0 |
| 1,632 | tweeoi | 4:14.40 | 0 | 0 |
| 1,633 | Dillonb321 | 4:14.45 | 0 | 0 |
| 1,633 | ★ ADDON ★ | 4:14.45 | 0 | 0 |
| 1,635 | Yee Rex | 4:14.46 | 0 | 0 |
| 1,636 | Mr. Willy Ding Dong | 4:14.70 | 0 | 0 |
| 1,637 | Panwich | 4:14.78 | 0 | 0 |
| 1,638 | Joan6694 | 4:14.87 | 0 | 0 |
| 1,639 | Plushsealy | 4:14.99 | 0 | 0 |
| 1,640 | JeffTheBruh | 4:15.06 | 0 | 0 |
| 1,641 | jlg12dna | 4:15.11 | 0 | 0 |
| 1,642 | flaniert gerne | 4:15.16 | 0 | 0 |
| 1,643 | Verus | 4:15.17 | 0 | 0 |
| 1,644 | Inecrodeus | 4:15.19 | 0 | 0 |
| 1,645 | NeØs | 4:15.30 | 0 | 0 |
| 1,646 | chaika | 4:15.47 | 0 | 0 |
| 1,647 | Larsifant | 4:15.62 | 0 | 0 |
| 1,648 | Undoom | 4:15.64 | 0 | 0 |
| 1,649 | ally0urb4se | 4:15.67 | 0 | 0 |
| 1,650 | GammaMesh | 4:15.73 | 0 | 0 |
| 1,651 | ZaKa TV NEWS | 4:15.76 | 0 | 0 |
| 1,652 | mastertait | 4:15.85 | 0 | 0 |
| 1,653 | Zap019 | 4:15.91 | 0 | 0 |
| 1,654 | Seal_Otter | 4:15.93 | 0 | 0 |
| 1,655 | kiwikyle42 | 4:15.98 | 0 | 0 |
| 1,656 | SmittenPuppet | 4:16.19 | 0 | 0 |
| 1,657 | Flatulent Seagull | 4:16.25 | 0 | 0 |
| 1,658 | robokuu | 4:16.41 | 0 | 0 |
| 1,659 | BigTrashKing | 4:16.67 | 0 | 0 |
| 1,660 | ✩Ray✩ | 4:16.75 | 0 | 0 |
| 1,661 | poseyporcupine | 4:17.01 | 0 | 0 |
| 1,662 | Taykum | 4:17.13 | 0 | 0 |
| 1,663 | SpiderGuy | 4:17.16 | 0 | 0 |
| 1,664 | GamrB34 | 4:17.18 | 0 | 0 |
| 1,665 | KLGB76 | 4:17.29 | 0 | 0 |
| 1,666 | hyperhunt621 | 4:17.33 | 0 | 0 |
| 1,667 | Migeru_F.V | 4:17.49 | 0 | 0 |
| 1,668 | Jester | 4:17.51 | 0 | 0 |
| 1,669 | Lykos | 4:17.54 | 0 | 0 |
| 1,670 | Yes, I *do main this character | 4:17.55 | 0 | 0 |
| 1,671 | A.K.AJ | 4:17.60 | 0 | 0 |
| 1,672 | ConKer X | 4:17.75 | 0 | 0 |
| 1,673 | Azazel157 | 4:17.89 | 0 | 0 |
| 1,674 | CommanderCreampie | 4:18.01 | 0 | 0 |
| 1,675 | Majin Doom | 4:18.15 | 0 | 0 |
| 1,676 | FabledFoe | 4:18.16 | 0 | 0 |
| 1,677 | Knils | 4:18.24 | 0 | 0 |
| 1,678 | Lunisity | 4:18.39 | 0 | 0 |
| 1,679 | Kanikami | 4:18.51 | 0 | 0 |
| 1,680 | TS_Mind_Swept | 4:18.57 | 0 | 0 |
| 1,681 | KhadaCasto | 4:18.68 | 0 | 0 |
| 1,682 | Izzy | 4:18.79 | 0 | 0 |
| 1,683 | The Baxes | 4:18.81 | 0 | 0 |
| 1,684 | Applesssss | 4:18.84 | 0 | 0 |
| 1,685 | GuacaMoney | 4:18.91 | 0 | 0 |
| 1,686 | TheZelen | 4:18.99 | 0 | 0 |
| 1,687 | Fellen | 4:19.08 | 0 | 0 |
| 1,688 | GEM Gaming | 4:19.13 | 0 | 0 |
| 1,689 | Akhino | 4:19.25 | 0 | 0 |
| 1,690 | Authorized Anthrax Dealer | 4:19.33 | 0 | 0 |
| 1,691 | domokomoromo | 4:19.53 | 0 | 0 |
| 1,691 | DigitalPotassium | 4:19.53 | 0 | 0 |
| 1,693 | KJG | 4:19.63 | 0 | 0 |
| 1,694 | Thing 1 | 4:19.68 | 0 | 0 |
| 1,695 | Nighty | 4:19.74 | 0 | 0 |
| 1,696 | DJ Sexypants | 4:19.85 | 0 | 0 |
| 1,697 | Deader | 4:19.94 | 0 | 0 |
| 1,698 | Cpt. Coño | 4:19.98 | 0 | 0 |
| 1,698 | Leix | 4:19.98 | 0 | 0 |
| 1,700 | JunosGone | 4:20.05 | 0 | 0 |
| 1,701 | xGabri00 | 4:20.09 | 0 | 0 |
| 1,702 | MarioMan | 4:20.18 | 0 | 0 |
| 1,703 | Unknown¿ | 4:20.38 | 0 | 0 |
| 1,704 | The Revirian | 4:20.39 | 0 | 0 |
| 1,705 | SFR_scric | 4:20.59 | 0 | 0 |
| 1,706 | MultiDarkZen | 4:20.69 | 0 | 0 |
| 1,707 | Frog311 | 4:20.75 | 0 | 0 |
| 1,708 | Sharengae | 4:20.91 | 0 | 0 |
| 1,709 | Dogluxer | 4:21.03 | 0 | 0 |
| 1,710 | HaveANiceDay | 4:21.24 | 0 | 0 |
| 1,711 | RafCas | 4:21.29 | 0 | 0 |
| 1,712 | Mythic | 4:21.30 | 0 | 0 |
| 1,713 | keygenmayor | 4:21.34 | 0 | 0 |
| 1,714 | Doomey | 4:21.36 | 0 | 0 |
| 1,715 | Vehlicks | 4:21.43 | 0 | 0 |
| 1,716 | Matchbox Master TTV | 4:21.51 | 0 | 0 |
| 1,717 | MyFoot | 4:21.65 | 0 | 0 |
| 1,718 | Mr. J | 4:21.85 | 0 | 0 |
| 1,719 | YellowBaccpack | 4:21.90 | 0 | 0 |
| 1,720 | Jizzneyland | 4:22.06 | 0 | 0 |
| 1,721 | Coastway To The Heaven Zone | 4:22.09 | 0 | 0 |
| 1,722 | MuffinSponge | 4:22.11 | 0 | 0 |
| 1,723 | BleuBlur-91 | 4:22.57 | 0 | 0 |
| 1,724 | The Pie Key | 4:22.59 | 0 | 0 |
| 1,725 | Nicholas Kane | 4:22.70 | 0 | 0 |
| 1,726 | Pasternak27 | 4:22.72 | 0 | 0 |
| 1,727 | 💖 Valentino 💖 | 4:22.73 | 0 | 0 |
| 1,728 | CheesePimp | 4:22.74 | 0 | 0 |
| 1,729 | Xion | 4:22.76 | 0 | 0 |
| 1,730 | PtFusion | 4:22.78 | 0 | 0 |
| 1,731 | EddoXD | 4:23.00 | 0 | 0 |
| 1,732 | Aspoonybard | 4:23.39 | 0 | 0 |
| 1,733 | ExMax | 4:23.42 | 0 | 0 |
| 1,734 | Conbron ^-^ | 4:23.45 | 0 | 0 |
| 1,735 | Maizones | 4:23.48 | 0 | 0 |
| 1,736 | DraidenWolf | 4:23.67 | 0 | 0 |
| 1,737 | Airknight | 4:23.71 | 0 | 0 |
| 1,738 | SP3CZ | 4:23.72 | 0 | 0 |
| 1,739 | Dibbleton | 4:23.83 | 0 | 0 |
| 1,740 | Iris | 4:23.87 | 0 | 0 |
| 1,741 | goodkeks | 4:23.90 | 0 | 0 |
| 1,742 | Flamingueax | 4:23.95 | 0 | 0 |
| 1,743 | FireThePyro | 4:24.02 | 0 | 0 |
| 1,744 | Pine | 4:24.03 | 0 | 0 |
| 1,745 | Dean0162 | 4:24.10 | 0 | 0 |
| 1,746 | SurvivorRB | 4:24.14 | 0 | 0 |
| 1,747 | Lullaby | 4:24.33 | 0 | 0 |
| 1,748 | Tourmaline | 4:24.35 | 0 | 0 |
| 1,749 | Cowboy Whale Man | 4:24.43 | 0 | 0 |
| 1,750 | jof | 4:24.45 | 0 | 0 |
| 1,751 | Pizza | 4:24.67 | 0 | 0 |
| 1,752 | Shrimpii | 4:24.77 | 0 | 0 |
| 1,752 | badyherz | 4:24.77 | 0 | 0 |
| 1,754 | EastonCobra315 | 4:24.79 | 0 | 0 |
| 1,755 | miromarket | 4:24.82 | 0 | 0 |
| 1,756 | Yuki | 4:25.04 | 0 | 0 |
| 1,757 | ␀ | 4:25.09 | 0 | 0 |
| 1,758 | Cobalt | 4:25.19 | 0 | 0 |
| 1,759 | TheOneGreenBear | 4:25.25 | 0 | 0 |
| 1,760 | Zerikki | 4:25.59 | 0 | 0 |
| 1,761 | cosmic | 4:25.99 | 0 | 0 |
| 1,761 | Domiz | 4:25.99 | 0 | 0 |
| 1,763 | Chinook | 4:26.08 | 0 | 0 |
| 1,764 | Balarithux | 4:26.57 | 0 | 0 |
| 1,765 | HellKite Matt | 4:26.64 | 0 | 0 |
| 1,766 | Mariocraft95 | 4:26.75 | 0 | 0 |
| 1,767 | conduit | 4:26.86 | 0 | 0 |
| 1,768 | Ice [TNF] | 4:26.91 | 0 | 0 |
| 1,769 | Kingen 99 | 4:27.07 | 0 | 0 |
| 1,770 | Reilly | 4:27.16 | 0 | 0 |
| 1,771 | ryg3l | 4:27.18 | 0 | 0 |
| 1,772 | Airwick in my PC | 4:27.20 | 0 | 0 |
| 1,773 | Aspen | 4:27.31 | 0 | 0 |
| 1,774 | Awmax | 4:27.32 | 0 | 0 |
| 1,775 | IchbinLuka | 4:27.41 | 0 | 0 |
| 1,776 | [MM] WMan22 | 4:27.48 | 0 | 0 |
| 1,777 | Wulg | 4:27.93 | 0 | 0 |
| 1,778 | Naxshe | 4:28.02 | 0 | 0 |
| 1,779 | Penitent Tangent | 4:28.24 | 0 | 0 |
| 1,780 | Computer | 4:28.26 | 0 | 0 |
| 1,781 | RavenHusky | 4:28.34 | 0 | 0 |
| 1,782 | The Voshmir | 4:28.70 | 0 | 0 |
| 1,783 | e157 | 4:28.73 | 0 | 0 |
| 1,784 | Coconut | 4:28.78 | 0 | 0 |
| 1,785 | 彡 ThunderFOX 彡 | 4:29.07 | 0 | 0 |
| 1,786 | The Moonlit Arts | 4:29.48 | 0 | 0 |
| 1,787 | RocketClauncher | 4:29.57 | 0 | 0 |
| 1,788 | xReaperxME | 4:29.60 | 0 | 0 |
| 1,789 | Tushar123 | 4:29.63 | 0 | 0 |
| 1,790 | Siegbert Schnösel | 4:29.64 | 0 | 0 |
| 1,791 | Bright | 4:29.66 | 0 | 0 |
| 1,792 | Maggerama | 4:29.68 | 0 | 0 |
| 1,793 | Maytorama | 4:30.06 | 0 | 0 |
| 1,794 | StupidFaceAaron | 4:30.09 | 0 | 0 |
| 1,795 | .png | 4:30.22 | 0 | 0 |
| 1,796 | I MESSED MY BLUE JEANS | 4:30.32 | 0 | 0 |
| 1,797 | mjnico94 | 4:30.55 | 0 | 0 |
| 1,798 | Calcarious | 4:30.60 | 0 | 0 |
| 1,799 | Matsouza | 4:31.32 | 0 | 0 |
| 1,800 | Adrianster | 4:31.34 | 0 | 0 |
| 1,801 | Skycave1 | 4:31.45 | 0 | 0 |
| 1,802 | amstizzi | 4:31.50 | 0 | 0 |
| 1,803 | LazloGS | 4:31.59 | 0 | 0 |
| 1,804 | Common Yob | 4:31.64 | 0 | 0 |
| 1,805 | SQuid17 | 4:31.67 | 0 | 0 |
| 1,806 | Tasty Gravy | 4:31.68 | 0 | 0 |
| 1,807 | Redrain100 | 4:31.70 | 0 | 0 |
| 1,808 | BalsamicSteve | 4:31.92 | 0 | 0 |
| 1,809 | Bruh | 4:31.97 | 0 | 0 |
| 1,810 | garp | 4:32.01 | 0 | 0 |
| 1,811 | Banana Tiger | 4:32.09 | 0 | 0 |
| 1,812 | Zaz | 4:32.53 | 0 | 0 |
| 1,813 | Sleve Mcdichael | 4:32.55 | 0 | 0 |
| 1,814 | Very Good, Very Evil | 4:32.61 | 0 | 0 |
| 1,814 | MarkiMiner | 4:32.61 | 0 | 0 |
| 1,816 | [Calibur] | 4:32.65 | 0 | 0 |
| 1,817 | Hawaiano | 4:32.75 | 0 | 0 |
| 1,818 | Slender19rus | 4:32.98 | 0 | 0 |
| 1,819 | Antonin5580 | 4:33.25 | 0 | 0 |
| 1,820 | EL3V1N | 4:33.28 | 0 | 0 |
| 1,821 | Goblin | 4:33.30 | 0 | 0 |
| 1,822 | thepandahipster | 4:33.55 | 0 | 0 |
| 1,823 | RunawayJesus | 4:33.73 | 0 | 0 |
| 1,824 | Deffy | 4:33.79 | 0 | 0 |
| 1,825 | A Duckless Pond | 4:33.85 | 0 | 0 |
| 1,826 | SCApikeman | 4:33.92 | 0 | 0 |
| 1,827 | Raspberry Lime | 4:33.95 | 0 | 0 |
| 1,827 | Cubic_Sherbet | 4:33.95 | 0 | 0 |
| 1,829 | Rockwecker [GER] | 4:34.10 | 0 | 0 |
| 1,830 | Llohgun | 4:34.14 | 0 | 0 |
| 1,831 | Solum Ipsum | 4:34.15 | 0 | 0 |
| 1,832 | PrestonLuigi12 | 4:34.22 | 0 | 0 |
| 1,833 | The most stupid bird in history | 4:34.28 | 0 | 0 |
| 1,834 | Kiwy | 4:34.49 | 0 | 0 |
| 1,835 | Brother Bharji | 4:34.52 | 0 | 0 |
| 1,836 | DGS | Zanthire | 4:34.63 | 0 | 0 |
| 1,837 | Tom Bergeron | 4:34.72 | 0 | 0 |
| 1,838 | DigiBitGrid | 4:34.79 | 0 | 0 |
| 1,839 | Varkky | 4:34.84 | 0 | 0 |
| 1,840 | Corruptor | 4:34.95 | 0 | 0 |
| 1,841 | Eternal Eclipse | 4:34.96 | 0 | 0 |
| 1,842 | S P A T H ☆ | 4:35.23 | 0 | 0 |
| 1,843 | LaserRacer | 4:35.34 | 0 | 0 |
| 1,844 | singingsteel | 4:35.42 | 0 | 0 |
| 1,845 | aritzh | 4:35.43 | 0 | 0 |
| 1,846 | petabyteag | 4:35.66 | 0 | 0 |
| 1,847 | Johnnino | 4:35.83 | 0 | 0 |
| 1,848 | RPTC | 4:36.02 | 0 | 0 |
| 1,849 | Remmli | 4:36.25 | 0 | 0 |
| 1,850 | Los | 4:36.26 | 0 | 0 |
| 1,851 | marsboy | 4:36.28 | 0 | 0 |
| 1,852 | Big Cass | 4:36.46 | 0 | 0 |
| 1,853 | Juanv | 4:36.62 | 0 | 0 |
| 1,854 | Pan Nikt | 4:36.63 | 0 | 0 |
| 1,855 | Enselin | 4:36.67 | 0 | 0 |
| 1,856 | Edelweiss | 4:36.75 | 0 | 0 |
| 1,857 | EmeraldSlash | 4:36.77 | 0 | 0 |
| 1,858 | White Powerade | 4:36.81 | 0 | 0 |
| 1,859 | Click-Clack | 4:36.87 | 0 | 0 |
| 1,860 | g4m3w0rm | 4:36.91 | 0 | 0 |
| 1,861 | Art E. Ficial | 4:37.19 | 0 | 0 |
| 1,862 | ☢ OGJack1337 | 4:37.26 | 0 | 0 |
| 1,863 | Jean Luc | 4:37.68 | 0 | 0 |
| 1,864 | FluffleBud | 4:37.78 | 0 | 0 |
| 1,865 | Hiragana | 4:37.86 | 0 | 0 |
| 1,866 | Sp1©ED | 4:37.92 | 0 | 0 |
| 1,867 | Artemis | 4:38.27 | 0 | 0 |
| 1,868 | CayIsDead | 4:38.57 | 0 | 0 |
| 1,869 | ausharle | 4:38.58 | 0 | 0 |
| 1,870 | Bezel | 4:38.64 | 0 | 0 |
| 1,871 | Hipnotyk | 4:38.82 | 0 | 0 |
| 1,872 | Kallegro | 4:38.92 | 0 | 0 |
| 1,873 | THE MACHO MAN RANDY SAVAGE | 4:39.16 | 0 | 0 |
| 1,874 | Armesio | 4:39.18 | 0 | 0 |
| 1,875 | Dylan | 4:39.21 | 0 | 0 |
| 1,876 | Toochi | 4:39.40 | 0 | 0 |
| 1,877 | Talion | 4:39.55 | 0 | 0 |
| 1,878 | BlobCodes | 4:39.63 | 0 | 0 |
| 1,879 | Zucr | 4:39.88 | 0 | 0 |
| 1,880 | Melvin Kelvin | 4:40.06 | 0 | 0 |
| 1,881 | talmagestanger | 4:40.24 | 0 | 0 |
| 1,882 | Jalen Barks | 4:40.55 | 0 | 0 |
| 1,883 | Terroroth | 4:40.60 | 0 | 0 |
| 1,884 | StarlightAzzy | 4:40.64 | 0 | 0 |
| 1,885 | Hexapotato | 4:41.83 | 0 | 0 |
| 1,886 | Eriol | 4:42.00 | 0 | 0 |
| 1,887 | Poofoo | 4:42.30 | 0 | 0 |
| 1,888 | Hydrochoerus | 4:42.43 | 0 | 0 |
| 1,889 | Kadence | 4:42.54 | 0 | 0 |
| 1,890 | Alcohol, Tobacco and Other Drugs | 4:42.65 | 0 | 0 |
| 1,891 | bootsea | 4:42.66 | 0 | 0 |
| 1,892 | ✦Aria✦ | 4:42.79 | 0 | 0 |
| 1,892 | Snyde | 4:42.79 | 0 | 0 |
| 1,894 | Prince Snoopy | 4:42.80 | 0 | 0 |
| 1,895 | Darkmuffin | 4:42.88 | 0 | 0 |
| 1,896 | Kimmy Fushigi ΘΔ& | 4:42.94 | 0 | 0 |
| 1,897 | Prodigy | 4:42.96 | 0 | 0 |
| 1,898 | LawrenceindaSky | 4:43.08 | 0 | 0 |
| 1,899 | MDL | 4:43.14 | 0 | 0 |
| 1,900 | SleepingMoon | 4:43.20 | 0 | 0 |
| 1,901 | Vic Walker | 4:43.24 | 0 | 0 |
| 1,902 | dannyburke03 | 4:43.36 | 0 | 0 |
| 1,903 | Zebra | 4:43.57 | 0 | 0 |
| 1,904 | Saturn's Ring | 4:43.59 | 0 | 0 |
| 1,905 | Sabre | 4:43.70 | 0 | 0 |
| 1,906 | Zerox | 4:43.81 | 0 | 0 |
| 1,907 | rabid.bit | 4:43.94 | 0 | 0 |
| 1,908 | Mr. BootRecords | 4:44.15 | 0 | 0 |
| 1,908 | TicRayCel | 4:44.15 | 0 | 0 |
| 1,910 | Jules | 4:44.19 | 0 | 0 |
| 1,911 | Fault | 4:44.26 | 0 | 0 |
| 1,912 | snarewaves | 4:44.28 | 0 | 0 |
| 1,912 | CybbrGhost | 4:44.28 | 0 | 0 |
| 1,914 | Diamond | 4:44.67 | 0 | 0 |
| 1,915 | Nightmare the Nachtara | 4:44.83 | 0 | 0 |
| 1,916 | Tagg | 4:45.08 | 0 | 0 |
| 1,917 | High_Flyer007 | 4:45.35 | 0 | 0 |
| 1,918 | SlugHaMR | 4:45.52 | 0 | 0 |
| 1,919 | Amauryvr123 | 4:45.75 | 0 | 0 |
| 1,920 | Schattenmensch | 4:45.79 | 0 | 0 |
| 1,921 | Flare | 4:45.85 | 0 | 0 |
| 1,922 | Tiberdays108 | 4:45.88 | 0 | 0 |
| 1,923 | racercowboy | 4:45.89 | 0 | 0 |
| 1,924 | Psypeep | 4:46.39 | 0 | 0 |
| 1,925 | sushii~ | 4:46.63 | 0 | 0 |
| 1,926 | ♧MuttMondo♧ | 4:46.74 | 0 | 0 |
| 1,927 | T0X1C FIRE | 4:46.78 | 0 | 0 |
| 1,928 | DarkKingIce | 4:46.99 | 0 | 0 |
| 1,929 | Mamuuh | 4:47.24 | 0 | 0 |
| 1,930 | Welsh Jammy | 4:47.27 | 0 | 0 |
| 1,931 | twow443 | 4:47.28 | 0 | 0 |
| 1,932 | CosmicBridge9 | 4:47.31 | 0 | 0 |
| 1,933 | JonTigerBoy | 4:47.70 | 0 | 0 |
| 1,934 | LowerD | 4:47.77 | 0 | 0 |
| 1,935 | † vireoh † | 4:47.80 | 0 | 0 |
| 1,936 | Enigma | 4:47.88 | 0 | 0 |
| 1,937 | Whysman | 4:47.92 | 0 | 0 |
| 1,938 | kakou | 4:48.02 | 0 | 0 |
| 1,939 | Mediocrez | 4:48.13 | 0 | 0 |
| 1,940 | InfectedHau | 4:48.17 | 0 | 0 |
| 1,941 | Doorcrusher | 4:48.39 | 0 | 0 |
| 1,942 | MageStuff | 4:48.50 | 0 | 0 |
| 1,943 | Willba | 4:48.52 | 0 | 0 |
| 1,944 | Its_me_Yoshi | 4:48.88 | 0 | 0 |
| 1,945 | LenAirhead | 4:48.93 | 0 | 0 |
| 1,946 | Admiral Scuba Steve | 4:49.23 | 0 | 0 |
| 1,947 | Dumbdumn5 | 4:49.36 | 0 | 0 |
| 1,948 | Pepsiman | 4:49.37 | 0 | 0 |
| 1,949 | GeorgeDaDragon | 4:50.00 | 0 | 0 |
| 1,950 | Phazen | 4:50.06 | 0 | 0 |
| 1,951 | Sneaky Steve | 4:50.12 | 0 | 0 |
| 1,952 | Micotheone | 4:50.20 | 0 | 0 |
| 1,953 | ShadowFoxUK | 4:50.41 | 0 | 0 |
| 1,954 | Law | 4:50.45 | 0 | 0 |
| 1,955 | rootCompute | 4:50.77 | 0 | 0 |
| 1,956 | Seren | 4:50.78 | 0 | 0 |
| 1,957 | Riggs | 4:51.30 | 0 | 0 |
| 1,958 | Achilles | 4:51.53 | 0 | 0 |
| 1,959 | meadg | 4:51.56 | 0 | 0 |
| 1,960 | Luna Kisunya | 4:51.68 | 0 | 0 |
| 1,961 | polybius99 | 4:51.97 | 0 | 0 |
| 1,962 | IGR Erebus | 4:52.15 | 0 | 0 |
| 1,963 | OtterWithACapgun | 4:52.87 | 0 | 0 |
| 1,964 | Benji | 4:52.93 | 0 | 0 |
| 1,965 | dpooms | 4:53.56 | 0 | 0 |
| 1,966 | Random User 91 | 4:53.63 | 0 | 0 |
| 1,967 | Einhalt Stratos | 4:53.92 | 0 | 0 |
| 1,968 | Large | 4:54.20 | 0 | 0 |
| 1,969 | Dede from Yoker | 4:54.39 | 0 | 0 |
| 1,970 | Neoky | 4:54.74 | 0 | 0 |
| 1,971 | Jayuu | 4:54.82 | 0 | 0 |
| 1,972 | ItsYaBoi427 | 4:55.11 | 0 | 0 |
| 1,973 | Daxival | 4:55.27 | 0 | 0 |
| 1,974 | VektorGeometrix | 4:55.36 | 0 | 0 |
| 1,975 | YaBoiCirme | 4:55.42 | 0 | 0 |
| 1,976 | LazyLoops | 4:55.48 | 0 | 0 |
| 1,977 | xander | 4:55.66 | 0 | 0 |
| 1,978 | kojackid | 4:55.88 | 0 | 0 |
| 1,979 | i'm a bird | 4:55.91 | 0 | 0 |
| 1,980 | A Very Angy Opossum | 4:56.66 | 0 | 0 |
| 1,981 | Azrael | 4:56.69 | 0 | 0 |
| 1,982 | MetaLeviathan | 4:56.79 | 0 | 0 |
| 1,983 | MisterDeo | 4:56.92 | 0 | 0 |
| 1,984 | stand「green towel」 | 4:57.01 | 0 | 0 |
| 1,985 | tiscassu | 4:57.10 | 0 | 0 |
| 1,986 | STEELBAS | 4:57.24 | 0 | 0 |
| 1,987 | Cooky-CC | 4:57.38 | 0 | 0 |
| 1,988 | loosdamoos | 4:57.47 | 0 | 0 |
| 1,989 | fläsk | 4:57.58 | 0 | 0 |
| 1,990 | darkkir3 | 4:57.89 | 0 | 0 |
| 1,991 | Borea | 4:57.98 | 0 | 0 |
| 1,992 | funkyfiend | 4:58.05 | 0 | 0 |
| 1,993 | China Anne McClain | 4:58.27 | 0 | 0 |
| 1,994 | Mystery Sol | 4:58.31 | 0 | 0 |
| 1,995 | Trillico | 4:58.52 | 0 | 0 |
| 1,996 | Mr. Doggy | 4:58.73 | 0 | 0 |
| 1,997 | Azy | 4:58.76 | 0 | 0 |
| 1,998 | Oni | 4:58.99 | 0 | 0 |
| 1,999 | Lee | 4:59.48 | 0 | 0 |
| 1,999 | Starhorder | 4:59.48 | 0 | 0 |
| 2,001 | Magic Bullet | 4:59.71 | 0 | 0 |
| 2,002 | MrPorsche[GER] | 4:59.72 | 0 | 0 |
| 2,003 | Kouldrek | 4:59.77 | 0 | 0 |
| 2,004 | carnivalcarrion | 4:59.99 | 0 | 0 |
| 2,005 | Vigrimir | 5:00.00 | 0 | 0 |
| 2,006 | MartinGhost2006 | 5:00.06 | 0 | 0 |
| 2,007 | SpeedRacer817 | 5:00.48 | 0 | 0 |
| 2,008 | Phreddy | 5:00.70 | 0 | 0 |
| 2,009 | Aldebaran | 5:00.79 | 0 | 0 |
| 2,010 | Piiec | 5:01.08 | 0 | 0 |
| 2,011 | Novo | 5:01.63 | 0 | 0 |
| 2,012 | Sailboat | 5:01.93 | 0 | 0 |
| 2,013 | CaptainCheese | 5:01.96 | 0 | 0 |
| 2,014 | D2C | Chrisc02 | 5:02.02 | 0 | 0 |
| 2,015 | ExtrelMC | 5:02.06 | 0 | 0 |
| 2,016 | NeutralArt | 5:02.19 | 0 | 0 |
| 2,017 | Chibi | 5:02.76 | 0 | 0 |
| 2,018 | depressoexpressc | 5:02.77 | 0 | 0 |
| 2,019 | trenaryja | 5:02.82 | 0 | 0 |
| 2,020 | Чаечек ☂ | 5:02.84 | 0 | 0 |
| 2,021 | HeartlessBastard | 5:03.01 | 0 | 0 |
| 2,022 | Meda | 5:03.39 | 0 | 0 |
| 2,023 | | 5:03.43 | 0 | 0 |
| 2,024 | Maginomicon | 5:03.48 | 0 | 0 |
| 2,025 | defcore | 5:03.74 | 0 | 0 |
| 2,026 | Espi | 5:04.37 | 0 | 0 |
| 2,027 | Twig | 5:04.55 | 0 | 0 |
| 2,028 | Kazserah | 5:04.56 | 0 | 0 |
| 2,029 | Agustin | 5:05.07 | 0 | 0 |
| 2,030 | VAC. | 5:05.20 | 0 | 0 |
| 2,031 | Fecto Para | 5:05.54 | 0 | 0 |
| 2,032 | Nadonya | 5:05.80 | 0 | 0 |
| 2,032 | DasBrotende | 5:05.80 | 0 | 0 |
| 2,034 | xXxG0dzRAgexXx | 5:06.02 | 0 | 0 |
| 2,035 | GigaSpin | 5:06.24 | 0 | 0 |
| 2,036 | Dubious Creature | 5:06.29 | 0 | 0 |
| 2,037 | ataal | 5:06.36 | 0 | 0 |
| 2,037 | Democracy Dave | 5:06.36 | 0 | 0 |
| 2,039 | Waffle Washer | 5:06.60 | 0 | 0 |
| 2,040 | SalvaaDork | 5:06.77 | 0 | 0 |
| 2,041 | Grong | 5:06.81 | 0 | 0 |
| 2,042 | PrometheusLabs | 5:07.01 | 0 | 0 |
| 2,043 | Jrama | 5:07.03 | 0 | 0 |
| 2,044 | Сосёна | 5:07.23 | 0 | 0 |
| 2,044 | adobesmurf | 5:07.23 | 0 | 0 |
| 2,046 | Spynug | 5:07.78 | 0 | 0 |
| 2,047 | Asbestos | 5:07.92 | 0 | 0 |
| 2,048 | RexTin | 5:08.05 | 0 | 0 |
| 2,049 | Fish | 5:08.89 | 0 | 0 |
| 2,050 | Symon | 5:09.40 | 0 | 0 |
| 2,051 | Taxiozaurus | 5:09.46 | 0 | 0 |
| 2,052 | A Random Casual | 5:09.78 | 0 | 0 |
| 2,053 | Bark Obama | 5:10.52 | 0 | 0 |
| 2,054 | FightB0i | 5:10.78 | 0 | 0 |
| 2,055 | DehydratedWater | 5:11.30 | 0 | 0 |
| 2,056 | Getty Image Egg Supreme | 5:11.39 | 0 | 0 |
| 2,057 | Trino | 5:11.65 | 0 | 0 |
| 2,058 | Sibsen | 5:12.55 | 0 | 0 |
| 2,059 | MuffinCook | 5:13.30 | 0 | 0 |
| 2,060 | Zombiefleischer | 5:13.79 | 0 | 0 |
| 2,060 | Matthew | 5:13.79 | 0 | 0 |
| 2,060 | 1nicerOli | 5:13.79 | 0 | 0 |
| 2,063 | d'Anjou | 5:13.91 | 0 | 0 |
| 2,064 | Mendrus | 5:14.37 | 0 | 0 |
| 2,065 | Camavorans | 5:14.65 | 0 | 0 |
| 2,066 | Wildcard777 | 5:14.75 | 0 | 0 |
| 2,067 | The [SVK] | 5:15.54 | 0 | 0 |
| 2,068 | WispTheVulpix | 5:15.76 | 0 | 0 |
| 2,069 | SWill | 5:15.80 | 0 | 0 |
| 2,070 | Camplify | 5:16.15 | 0 | 0 |
| 2,071 | MiniZetra | 5:16.68 | 0 | 0 |
| 2,072 | tech | 5:16.73 | 0 | 0 |
| 2,073 | Jin Ja | 5:16.77 | 0 | 0 |
| 2,074 | Peaceful | 5:17.12 | 0 | 0 |
| 2,075 | Lucillouch | 5:17.37 | 0 | 0 |
| 2,076 | NiOkY | 5:17.46 | 0 | 0 |
| 2,077 | Centervillain Jr. | 5:17.51 | 0 | 0 |
| 2,078 | BackedRuby7 | 5:17.59 | 0 | 0 |
| 2,079 | Kammui | 5:18.41 | 0 | 0 |
| 2,080 | raysattler | 5:18.61 | 0 | 0 |
| 2,081 | Maoist Pool Party | 5:18.63 | 0 | 0 |
| 2,082 | Kyryx | 5:18.87 | 0 | 0 |
| 2,083 | kandi | 5:19.27 | 0 | 0 |
| 2,084 | TriMay | 5:19.29 | 0 | 0 |
| 2,085 | Ar7icP3nguin | 5:19.55 | 0 | 0 |
| 2,086 | Zkyo | 5:19.71 | 0 | 0 |
| 2,087 | Super Smooth Groovy Gravy | 5:19.79 | 0 | 0 |
| 2,088 | KrZ | 5:20.05 | 0 | 0 |
| 2,089 | neneH | 5:20.47 | 0 | 0 |
| 2,090 | LoudLord | 5:20.88 | 0 | 0 |
| 2,091 | Leomupi | 5:22.20 | 0 | 0 |
| 2,092 | [BIT] Moggie | 5:22.43 | 0 | 0 |
| 2,093 | alex /(.*.)/ | 5:22.55 | 0 | 0 |
| 2,094 | Clu | 5:23.00 | 0 | 0 |
| 2,095 | Kxrma | 5:23.42 | 0 | 0 |
| 2,096 | Keysazz | 5:23.43 | 0 | 0 |
| 2,097 | cattoms | 5:23.86 | 0 | 0 |
| 2,098 | Devbear | 5:24.11 | 0 | 0 |
| 2,099 | Minyon69 | 5:24.12 | 0 | 0 |
| 2,100 | The Good Gaming Dragon | 5:24.30 | 0 | 0 |
| 2,101 | Woge | 5:25.29 | 0 | 0 |
| 2,102 | Koichi Dono | 5:26.01 | 0 | 0 |
| 2,103 | Big Tuna | 5:26.12 | 0 | 0 |
| 2,104 | TychoDragon | 5:26.48 | 0 | 0 |
| 2,105 | Phonk enjoyer | 5:26.66 | 0 | 0 |
| 2,106 | BlankStare | 5:26.72 | 0 | 0 |
| 2,107 | Nugatie | 5:26.89 | 0 | 0 |
| 2,108 | shi+0rty | 5:27.46 | 0 | 0 |
| 2,109 | HaxTheCharizard | 5:27.78 | 0 | 0 |
| 2,110 | tomoya_0317 | 5:27.85 | 0 | 0 |
| 2,111 | Alma Nova | 5:28.00 | 0 | 0 |
| 2,112 | SPAIKOMATRIX | 5:28.18 | 0 | 0 |
| 2,113 | Ted Cruz Zodiac Killer | 5:28.76 | 0 | 0 |
| 2,114 | Wolfy2715 | 5:28.94 | 0 | 0 |
| 2,115 | CMDRsly | 5:30.31 | 0 | 0 |
| 2,116 | Moon | 5:30.60 | 0 | 0 |
| 2,117 | piemaster916 | 5:30.87 | 0 | 0 |
| 2,118 | Mark Leo | 5:30.95 | 0 | 0 |
| 2,119 | hyperMaxy | 5:31.02 | 0 | 0 |
| 2,120 | Raisinbran | 5:31.19 | 0 | 0 |
| 2,121 | NavI | 5:31.73 | 0 | 0 |
| 2,122 | ENDO | 5:31.81 | 0 | 0 |
| 2,123 | ARTNS | 5:32.30 | 0 | 0 |
| 2,124 | CapleGuion | 5:32.37 | 0 | 0 |
| 2,125 | RobloxMaster69 | 5:32.51 | 0 | 0 |
| 2,126 | zeeker__ | 5:32.56 | 0 | 0 |
| 2,127 | Frozen | 5:33.13 | 0 | 0 |
| 2,128 | Pepo | 5:33.59 | 0 | 0 |
| 2,129 | ShortBear | 5:33.63 | 0 | 0 |
| 2,130 | KenricGaming | 5:34.00 | 0 | 0 |
| 2,131 | Samir Al-Hayd | 5:34.21 | 0 | 0 |
| 2,132 | HandyChris | 5:35.22 | 0 | 0 |
| 2,133 | BILLY MAYS: YOUR OXICLEAN DEALER | 5:35.24 | 0 | 0 |
| 2,134 | XTRMNTR2K | 5:35.40 | 0 | 0 |
| 2,135 | DTIII | 5:35.55 | 0 | 0 |
| 2,136 | Zialopido Grande | 5:36.16 | 0 | 0 |
| 2,137 | Pvt. Parts | 5:36.43 | 0 | 0 |
| 2,138 | Azure | 5:36.99 | 0 | 0 |
| 2,139 | Draconis Eltanin | 5:37.24 | 0 | 0 |
| 2,140 | Holyschnike | 5:37.41 | 0 | 0 |
| 2,141 | distractjax | 5:38.78 | 0 | 0 |
| 2,142 | Bubbles in my Car | 5:39.09 | 0 | 0 |
| 2,143 | Catoxis | 5:39.80 | 0 | 0 |
| 2,144 | gog | 5:40.98 | 0 | 0 |
| 2,145 | Pyrrus | 5:41.47 | 0 | 0 |
| 2,146 | Saujii2 | 5:41.68 | 0 | 0 |
| 2,147 | Whole Ass'd Attempt | 5:42.03 | 0 | 0 |
| 2,148 | BioPaw | 5:42.19 | 0 | 0 |
| 2,149 | Grimmy | 5:42.30 | 0 | 0 |
| 2,150 | ShautKoru | 5:42.77 | 0 | 0 |
| 2,151 | gdreaper1 {CoW} | 5:43.46 | 0 | 0 |
| 2,152 | Duderino | 5:43.50 | 0 | 0 |
| 2,153 | Semonpluto | 5:43.80 | 0 | 0 |
| 2,154 | Krystal_Claws | 5:45.06 | 0 | 0 |
| 2,154 | LastResort554 | 5:45.06 | 0 | 0 |
| 2,156 | Anduku | 5:45.25 | 0 | 0 |
| 2,157 | AirFox | 5:46.67 | 0 | 0 |
| 2,158 | Austini Davini | 5:46.76 | 0 | 0 |
| 2,159 | HawaiianBreezy | 5:47.18 | 0 | 0 |
| 2,160 | Raze Silverwing | 5:48.81 | 0 | 0 |
| 2,161 | Lair | 5:48.99 | 0 | 0 |
| 2,162 | 5-Star General Ender | 5:49.99 | 0 | 0 |
| 2,163 | hk | 5:50.28 | 0 | 0 |
| 2,164 | Chocolate Saiyan | 5:50.97 | 0 | 0 |
| 2,165 | Axle Dawn Dusk | 5:52.25 | 0 | 0 |
| 2,166 | McGreevy | 5:52.86 | 0 | 0 |
| 2,167 | HamonX2 | 5:53.67 | 0 | 0 |
| 2,168 | ONYX | 5:56.58 | 0 | 0 |
| 2,169 | Rahzyt | 5:56.68 | 0 | 0 |
| 2,170 | makatakaba | 5:57.52 | 0 | 0 |
| 2,171 | BoostandEthanol | 5:57.76 | 0 | 0 |
| 2,172 | lmlb_lmlb | 5:59.34 | 0 | 0 |
| 2,173 | RKS | Splicer | 6:01.07 | 0 | 0 |
| 2,174 | Chocolatine-33 | 6:01.64 | 0 | 0 |
| 2,175 | TMP-0 | 6:03.58 | 0 | 0 |
| 2,176 | Kirohar | 6:04.20 | 0 | 0 |
| 2,177 | The Grimspeeder | 6:04.70 | 0 | 0 |
| 2,178 | skipaddypappap20 | 6:05.37 | 0 | 0 |
| 2,179 | Revenant Crow | 6:07.25 | 0 | 0 |
| 2,180 | [Lard] Kriltch | 6:07.93 | 0 | 0 |
| 2,181 | Gyodesis | 6:08.71 | 0 | 0 |
| 2,182 | therealfatalB | 6:09.57 | 0 | 0 |
| 2,183 | Batarax | 6:09.58 | 0 | 0 |
| 2,184 | Usar*#Lucy.A | 6:09.86 | 0 | 0 |
| 2,185 | Destroyjon | 6:10.06 | 0 | 0 |
| 2,186 | AzzaWhite | 6:10.13 | 0 | 0 |
| 2,187 | RedL | 6:10.97 | 0 | 0 |
| 2,188 | Snuggles | 6:11.04 | 0 | 0 |
| 2,189 | Koimp | 6:12.07 | 0 | 0 |
| 2,190 | Albatar | 6:12.23 | 0 | 0 |
| 2,191 | kill everyone and leave | 6:13.01 | 0 | 0 |
| 2,192 | r33fermadness | 6:14.66 | 0 | 0 |
| 2,193 | meow :3 | 6:15.29 | 0 | 0 |
| 2,194 | DatGamerFish | 6:16.27 | 0 | 0 |
| 2,195 | TheDemonicFool | 6:18.37 | 0 | 0 |
| 2,196 | hank | 6:18.80 | 0 | 0 |
| 2,197 | daisykeen | 6:19.13 | 0 | 0 |
| 2,198 | Pascal Prout | 6:19.30 | 0 | 0 |
| 2,199 | Danel | 6:20.10 | 0 | 0 |
| 2,200 | Ignis Fatuus | 6:20.67 | 0 | 0 |
| 2,201 | Kelloron | 6:20.98 | 0 | 0 |
| 2,202 | Dad | 6:21.12 | 0 | 0 |
| 2,203 | Knight Hound | 6:21.22 | 0 | 0 |
| 2,204 | Linovsky | 6:22.62 | 0 | 0 |
| 2,205 | Bone Structure | 6:23.01 | 0 | 0 |
| 2,206 | FrozenFjord | 6:23.28 | 0 | 0 |
| 2,207 | Big THEE Cat | 6:23.33 | 0 | 0 |
| 2,208 | BONzi | 6:23.77 | 0 | 0 |
| 2,209 | Coldramen | 6:25.83 | 0 | 0 |
| 2,210 | 🥪Jill Sandwich🥪 | 6:26.42 | 0 | 0 |
| 2,211 | Black7en | 6:27.22 | 0 | 0 |
| 2,212 | Arehateru | 6:27.42 | 0 | 0 |
| 2,213 | WindowsRedSpike | 6:27.84 | 0 | 0 |
| 2,214 | JDthe3rd | 6:28.43 | 0 | 0 |
| 2,215 | burbs00 | 6:28.82 | 0 | 0 |
| 2,216 | JiiChan | 6:28.88 | 0 | 0 |
| 2,217 | GoldBlaze | 6:29.26 | 0 | 0 |
| 2,218 | DarkBoi | 6:30.49 | 0 | 0 |
| 2,219 | Jonboybrutal | 6:30.81 | 0 | 0 |
| 2,220 | ʚNullɞ | 6:31.62 | 0 | 0 |
| 2,221 | Hydrochlorination | 6:31.76 | 0 | 0 |
| 2,222 | Snappy_Boi | 6:32.04 | 0 | 0 |
| 2,223 | Chesckers | 6:35.19 | 0 | 0 |
| 2,224 | XcoreORDER66 | 6:35.59 | 0 | 0 |
| 2,225 | @R+5 | 6:40.61 | 0 | 0 |
| 2,226 | rpk | 6:40.67 | 0 | 0 |
| 2,227 | Ara | 6:41.10 | 0 | 0 |
| 2,228 | Stephielynn98 | 6:42.31 | 0 | 0 |
| 2,229 | VesperD | 6:43.64 | 0 | 0 |
| 2,230 | Jadinen | 6:43.75 | 0 | 0 |
| 2,231 | Bdub 𒉭 240km/h PEEK | 6:43.91 | 0 | 0 |
| 2,232 | Chronos | 6:44.09 | 0 | 0 |
| 2,232 | Robab | 6:44.09 | 0 | 0 |
| 2,234 | KianNotCyan | 6:44.83 | 0 | 0 |
| 2,235 | carnithirteen | 6:46.20 | 0 | 0 |
| 2,236 | Minefreak6633 | 6:46.86 | 0 | 0 |
| 2,237 | Totodakoala | 6:47.84 | 0 | 0 |
| 2,238 | Sytrat | 6:47.92 | 0 | 0 |
| 2,239 | Xepher | 6:52.65 | 0 | 0 |
| 2,240 | Cosmic Gobbles | 6:54.56 | 0 | 0 |
| 2,241 | hoodini | 6:55.55 | 0 | 0 |
| 2,242 | Cinder | 6:56.13 | 0 | 0 |
| 2,243 | Joystick Joyce | 6:57.12 | 0 | 0 |
| 2,244 | Verax | 6:58.00 | 0 | 0 |
| 2,245 | Decoy | 6:58.10 | 0 | 0 |
| 2,246 | Noodle | 7:00.47 | 0 | 0 |
| 2,247 | Aerus | 7:01.29 | 0 | 0 |
| 2,248 | gavr123456789 | 7:07.27 | 0 | 0 |
| 2,249 | Omyum | 7:10.93 | 0 | 0 |
| 2,250 | YoFangirls | 7:13.57 | 0 | 0 |
| 2,251 | .B3lzzebub☹☭✯ | 7:15.11 | 0 | 0 |
| 2,252 | Coyotegrim | 7:15.45 | 0 | 0 |
| 2,253 | Metaknight12342 | 7:16.69 | 0 | 0 |
| 2,254 | M3TIOR | 7:17.26 | 0 | 0 |
| 2,255 | The Janitor | 7:17.74 | 0 | 0 |
| 2,256 | chainlordxxx | 7:17.82 | 0 | 0 |
| 2,257 | Night Light Dragon | 7:20.78 | 0 | 0 |
| 2,258 | sevenofeleven | 7:21.34 | 0 | 0 |
| 2,259 | Spark | 7:23.71 | 0 | 0 |
| 2,260 | Booty Eating Bandit | 7:26.25 | 0 | 0 |
| 2,261 | mikkokuivala95 | 7:28.62 | 0 | 0 |
| 2,262 | Deadlock | 7:30.52 | 0 | 0 |
| 2,263 | thaumato | 7:35.10 | 0 | 0 |
| 2,264 | FembSpirit_TTV | 7:35.36 | 0 | 0 |
| 2,265 | DeachirShadowLord | 7:36.34 | 0 | 0 |
| 2,266 | leandrod | 7:37.39 | 0 | 0 |
| 2,267 | Autechre | 7:38.28 | 0 | 0 |
| 2,268 | ThaDinnerGuy | 7:47.09 | 0 | 0 |
| 2,269 | RexDoGood | 7:48.52 | 0 | 0 |
| 2,270 | Duke_Beavington | 7:52.98 | 0 | 0 |
| 2,271 | Thin Mints | 7:53.16 | 0 | 0 |
| 2,272 | MrShoes | 7:55.71 | 0 | 0 |
| 2,273 | Shu rik | 7:55.94 | 0 | 0 |
| 2,274 | MoonLight 🌙 | 7:56.33 | 0 | 0 |
| 2,275 | IceBreaker. | 7:56.75 | 0 | 0 |
| 2,276 | _Zero | 7:57.20 | 0 | 0 |
| 2,277 | doumood | 7:58.34 | 0 | 0 |
| 2,278 | RedFoxFur | 8:04.41 | 0 | 0 |
| 2,279 | Dawn | 8:05.73 | 0 | 0 |
| 2,280 | SpielNur | 8:11.04 | 0 | 0 |
| 2,281 | WrestleZero | 8:15.32 | 0 | 0 |
| 2,282 | Hades | 8:20.20 | 0 | 0 |
| 2,283 | AbyZZalBlackDragon | 8:25.61 | 0 | 0 |
| 2,284 | Cowboy Dan | 8:26.10 | 0 | 0 |
| 2,285 | Hydranix | 8:30.14 | 0 | 0 |
| 2,286 | V | 8:31.89 | 0 | 0 |
| 2,287 | Genesai G. | 8:33.16 | 0 | 0 |
| 2,288 | SgtTrinity0777 | 8:44.92 | 0 | 0 |
| 2,289 | Jtwieske | 8:50.80 | 0 | 0 |
| 2,290 | sickly!! | 9:12.98 | 0 | 0 |
| 2,291 | Eshael | 9:15.98 | 0 | 0 |
| 2,292 | SylverAutumn | 9:24.41 | 0 | 0 |
| 2,293 | shellzx | 9:25.02 | 0 | 0 |
| 2,294 | SkidMark | 9:28.38 | 0 | 0 |
| 2,295 | Xynper | 9:31.17 | 0 | 0 |
| 2,296 | Zerdath | 9:33.16 | 0 | 0 |
| 2,297 | Sya | 9:44.06 | 0 | 0 |
| 2,298 | TNomiz | 9:47.24 | 0 | 0 |
| 2,299 | Gartholemule | 9:56.59 | 0 | 0 |
| 2,300 | pøcker. ⨚ | 10:04.22 | 0 | 0 |
| 2,301 | Mildly Retarded | 10:16.68 | 0 | 0 |
| 2,302 | sevenofnone | 10:35.67 | 0 | 0 |
| 2,303 | Wishlist>Disco Tomb | 10:48.17 | 0 | 0 |
| 2,304 | Fox Mulder | 10:54.27 | 0 | 0 |
| 2,305 | Ceapa_Verde | 11:38.01 | 0 | 0 |
| 2,306 | Mobius | 12:05.99 | 0 | 0 |
| 2,307 | KAOZAZTECA | 12:20.14 | 0 | 0 |
| 2,308 | Jamuwu | 12:23.25 | 0 | 0 |
| 2,309 | Maou Tenshi | 12:44.76 | 0 | 0 |
| 2,310 | Jerico Venado | 13:06.94 | 0 | 0 |
| 2,311 | Yeezy Yeezy What's Good | 13:22.22 | 0 | 0 |
| 2,312 | kakeoflove | 16:47.06 | 0 | 0 |
| 2,313 | 3n1gm4 | 21:02.74 | 0 | 0 |
| 2,314 | rilelyscastle | 13:33:15.78 | 0 | 0 |
HoldGrip